<?xml version="1.0" encoding="UTF-8" standalone="no" ?>
<gpx xmlns="http://www.topografix.com/GPX/1/1" xmlns:xsi="http://www.w3.org/2001/XMLSchema-instance" xsi:schemaLocation="http://www.topografix.com/GPX/1/1 http://www.topografix.com/GPX/1/1/gpx.xsd" version="1.1" creator="VisuGPX - https://www.visugpx.com">
  <metadata>
    <name>ormes</name>
    <desc><![CDATA[boucle Ormes-St Ay]]></desc>
  </metadata>
  <trk>
    <name><![CDATA[ormes]]></name>
    <trkseg>
      <trkpt lat="47.94151" lon="1.81246">
        <ele>101.051</ele>
        <time>2011-10-30T08:08:58Z</time>
      </trkpt>
      <trkpt lat="47.94125" lon="1.81275">
        <ele>101.138</ele>
        <time>2011-10-30T08:09:07Z</time>
      </trkpt>
      <trkpt lat="47.9406" lon="1.81375">
        <ele>101.482</ele>
        <time>2011-10-30T08:09:30Z</time>
      </trkpt>
      <trkpt lat="47.94048" lon="1.81374">
        <ele>102.239</ele>
        <time>2011-10-30T08:09:34Z</time>
      </trkpt>
      <trkpt lat="47.94018" lon="1.81301">
        <ele>101.491</ele>
        <time>2011-10-30T08:09:49Z</time>
      </trkpt>
      <trkpt lat="47.9397" lon="1.81184">
        <ele>101.655</ele>
        <time>2011-10-30T08:10:09Z</time>
      </trkpt>
      <trkpt lat="47.93904" lon="1.81022">
        <ele>103.297</ele>
        <time>2011-10-30T08:10:36Z</time>
      </trkpt>
      <trkpt lat="47.93904" lon="1.80993">
        <ele>103.572</ele>
        <time>2011-10-30T08:10:40Z</time>
      </trkpt>
      <trkpt lat="47.93939" lon="1.80936">
        <ele>102.008</ele>
        <time>2011-10-30T08:10:49Z</time>
      </trkpt>
      <trkpt lat="47.93974" lon="1.80876">
        <ele>100.79</ele>
        <time>2011-10-30T08:10:58Z</time>
      </trkpt>
      <trkpt lat="47.93976" lon="1.80846">
        <ele>100.992</ele>
        <time>2011-10-30T08:11:03Z</time>
      </trkpt>
      <trkpt lat="47.93934" lon="1.80701">
        <ele>101.384</ele>
        <time>2011-10-30T08:11:22Z</time>
      </trkpt>
      <trkpt lat="47.93871" lon="1.80547">
        <ele>101.728</ele>
        <time>2011-10-30T08:11:46Z</time>
      </trkpt>
      <trkpt lat="47.93793" lon="1.80362">
        <ele>100.253</ele>
        <time>2011-10-30T08:12:12Z</time>
      </trkpt>
      <trkpt lat="47.9375" lon="1.80265">
        <ele>100.075</ele>
        <time>2011-10-30T08:12:28Z</time>
      </trkpt>
      <trkpt lat="47.93777" lon="1.80199">
        <ele>100.176</ele>
        <time>2011-10-30T08:12:38Z</time>
      </trkpt>
      <trkpt lat="47.9385" lon="1.80061">
        <ele>99.69</ele>
        <time>2011-10-30T08:12:59Z</time>
      </trkpt>
      <trkpt lat="47.93906" lon="1.79955">
        <ele>99.694</ele>
        <time>2011-10-30T08:13:16Z</time>
      </trkpt>
      <trkpt lat="47.93903" lon="1.79895">
        <ele>100.476</ele>
        <time>2011-10-30T08:13:25Z</time>
      </trkpt>
      <trkpt lat="47.93893" lon="1.79871">
        <ele>100.521</ele>
        <time>2011-10-30T08:13:29Z</time>
      </trkpt>
      <trkpt lat="47.93817" lon="1.79765">
        <ele>101.714</ele>
        <time>2011-10-30T08:13:50Z</time>
      </trkpt>
      <trkpt lat="47.93694" lon="1.79593">
        <ele>101.501</ele>
        <time>2011-10-30T08:14:21Z</time>
      </trkpt>
      <trkpt lat="47.93638" lon="1.79472">
        <ele>101.269</ele>
        <time>2011-10-30T08:14:39Z</time>
      </trkpt>
      <trkpt lat="47.93623" lon="1.79314">
        <ele>102.199</ele>
        <time>2011-10-30T08:14:59Z</time>
      </trkpt>
      <trkpt lat="47.93603" lon="1.79086">
        <ele>100.291</ele>
        <time>2011-10-30T08:15:25Z</time>
      </trkpt>
      <trkpt lat="47.93594" lon="1.78918">
        <ele>99.444</ele>
        <time>2011-10-30T08:15:45Z</time>
      </trkpt>
      <trkpt lat="47.93586" lon="1.78767">
        <ele>99.223</ele>
        <time>2011-10-30T08:16:05Z</time>
      </trkpt>
      <trkpt lat="47.93582" lon="1.78703">
        <ele>97.501</ele>
        <time>2011-10-30T08:16:12Z</time>
      </trkpt>
      <trkpt lat="47.93576" lon="1.78685">
        <ele>97.575</ele>
        <time>2011-10-30T08:16:15Z</time>
      </trkpt>
      <trkpt lat="47.93567" lon="1.78573">
        <ele>97.24</ele>
        <time>2011-10-30T08:16:29Z</time>
      </trkpt>
      <trkpt lat="47.93555" lon="1.78431">
        <ele>97.234</ele>
        <time>2011-10-30T08:16:46Z</time>
      </trkpt>
      <trkpt lat="47.93547" lon="1.78342">
        <ele>97.646</ele>
        <time>2011-10-30T08:16:57Z</time>
      </trkpt>
      <trkpt lat="47.93546" lon="1.78322">
        <ele>97.642</ele>
        <time>2011-10-30T08:17:00Z</time>
      </trkpt>
      <trkpt lat="47.93559" lon="1.78254">
        <ele>98.523</ele>
        <time>2011-10-30T08:17:12Z</time>
      </trkpt>
      <trkpt lat="47.93585" lon="1.78221">
        <ele>99.754</ele>
        <time>2011-10-30T08:17:22Z</time>
      </trkpt>
      <trkpt lat="47.93607" lon="1.78194">
        <ele>101.628</ele>
        <time>2011-10-30T08:17:30Z</time>
      </trkpt>
      <trkpt lat="47.93622" lon="1.78155">
        <ele>102.458</ele>
        <time>2011-10-30T08:17:38Z</time>
      </trkpt>
      <trkpt lat="47.93641" lon="1.7809">
        <ele>102.277</ele>
        <time>2011-10-30T08:17:49Z</time>
      </trkpt>
      <trkpt lat="47.93643" lon="1.78084">
        <ele>102.284</ele>
        <time>2011-10-30T08:17:50Z</time>
      </trkpt>
      <trkpt lat="47.93657" lon="1.78027">
        <ele>101.402</ele>
        <time>2011-10-30T08:18:00Z</time>
      </trkpt>
      <trkpt lat="47.93663" lon="1.78002">
        <ele>101.882</ele>
        <time>2011-10-30T08:18:05Z</time>
      </trkpt>
      <trkpt lat="47.93674" lon="1.7795">
        <ele>100.793</ele>
        <time>2011-10-30T08:18:15Z</time>
      </trkpt>
      <trkpt lat="47.93678" lon="1.77891">
        <ele>100.604</ele>
        <time>2011-10-30T08:18:24Z</time>
      </trkpt>
      <trkpt lat="47.9368" lon="1.77875">
        <ele>100.01</ele>
        <time>2011-10-30T08:18:27Z</time>
      </trkpt>
      <trkpt lat="47.9368" lon="1.77871">
        <ele>100.535</ele>
        <time>2011-10-30T08:18:30Z</time>
      </trkpt>
      <trkpt lat="47.93649" lon="1.77892">
        <ele>100.689</ele>
        <time>2011-10-30T08:18:41Z</time>
      </trkpt>
      <trkpt lat="47.93608" lon="1.77938">
        <ele>102.091</ele>
        <time>2011-10-30T08:18:53Z</time>
      </trkpt>
      <trkpt lat="47.93582" lon="1.77965">
        <ele>102.646</ele>
        <time>2011-10-30T08:19:01Z</time>
      </trkpt>
      <trkpt lat="47.93557" lon="1.77973">
        <ele>102.685</ele>
        <time>2011-10-30T08:19:06Z</time>
      </trkpt>
      <trkpt lat="47.93506" lon="1.77883">
        <ele>101.796</ele>
        <time>2011-10-30T08:19:22Z</time>
      </trkpt>
      <trkpt lat="47.93493" lon="1.77861">
        <ele>101.221</ele>
        <time>2011-10-30T08:19:26Z</time>
      </trkpt>
      <trkpt lat="47.9348" lon="1.77839">
        <ele>101.47</ele>
        <time>2011-10-30T08:19:30Z</time>
      </trkpt>
      <trkpt lat="47.93416" lon="1.77723">
        <ele>100.032</ele>
        <time>2011-10-30T08:19:49Z</time>
      </trkpt>
      <trkpt lat="47.93367" lon="1.77636">
        <ele>98.548</ele>
        <time>2011-10-30T08:20:05Z</time>
      </trkpt>
      <trkpt lat="47.93332" lon="1.77577">
        <ele>98.218</ele>
        <time>2011-10-30T08:20:16Z</time>
      </trkpt>
      <trkpt lat="47.9333" lon="1.77573">
        <ele>97.789</ele>
        <time>2011-10-30T08:20:17Z</time>
      </trkpt>
      <trkpt lat="47.93288" lon="1.77501">
        <ele>98.912</ele>
        <time>2011-10-30T08:20:31Z</time>
      </trkpt>
      <trkpt lat="47.93279" lon="1.77487">
        <ele>99.356</ele>
        <time>2011-10-30T08:20:35Z</time>
      </trkpt>
      <trkpt lat="47.93276" lon="1.77497">
        <ele>99.136</ele>
        <time>2011-10-30T08:20:39Z</time>
      </trkpt>
      <trkpt lat="47.93256" lon="1.77537">
        <ele>99.594</ele>
        <time>2011-10-30T08:20:48Z</time>
      </trkpt>
      <trkpt lat="47.93226" lon="1.77582">
        <ele>98.626</ele>
        <time>2011-10-30T08:20:59Z</time>
      </trkpt>
      <trkpt lat="47.93193" lon="1.77602">
        <ele>98.573</ele>
        <time>2011-10-30T08:21:08Z</time>
      </trkpt>
      <trkpt lat="47.93172" lon="1.7761">
        <ele>98.205</ele>
        <time>2011-10-30T08:21:13Z</time>
      </trkpt>
      <trkpt lat="47.93136" lon="1.77627">
        <ele>98.315</ele>
        <time>2011-10-30T08:21:20Z</time>
      </trkpt>
      <trkpt lat="47.93099" lon="1.77666">
        <ele>97.434</ele>
        <time>2011-10-30T08:21:29Z</time>
      </trkpt>
      <trkpt lat="47.93084" lon="1.77688">
        <ele>97.259</ele>
        <time>2011-10-30T08:21:34Z</time>
      </trkpt>
      <trkpt lat="47.93064" lon="1.77751">
        <ele>96.797</ele>
        <time>2011-10-30T08:21:45Z</time>
      </trkpt>
      <trkpt lat="47.93036" lon="1.77811">
        <ele>96.229</ele>
        <time>2011-10-30T08:21:57Z</time>
      </trkpt>
      <trkpt lat="47.9301" lon="1.77861">
        <ele>96.219</ele>
        <time>2011-10-30T08:22:09Z</time>
      </trkpt>
      <trkpt lat="47.9298" lon="1.7791">
        <ele>96.056</ele>
        <time>2011-10-30T08:22:19Z</time>
      </trkpt>
      <trkpt lat="47.92963" lon="1.77942">
        <ele>96.049</ele>
        <time>2011-10-30T08:22:27Z</time>
      </trkpt>
      <trkpt lat="47.92949" lon="1.77968">
        <ele>95.912</ele>
        <time>2011-10-30T08:22:32Z</time>
      </trkpt>
      <trkpt lat="47.92923" lon="1.78038">
        <ele>96.178</ele>
        <time>2011-10-30T08:22:44Z</time>
      </trkpt>
      <trkpt lat="47.92922" lon="1.78042">
        <ele>96.249</ele>
        <time>2011-10-30T08:22:45Z</time>
      </trkpt>
      <trkpt lat="47.92898" lon="1.78023">
        <ele>95.742</ele>
        <time>2011-10-30T08:22:53Z</time>
      </trkpt>
      <trkpt lat="47.92878" lon="1.77984">
        <ele>96.225</ele>
        <time>2011-10-30T08:23:01Z</time>
      </trkpt>
      <trkpt lat="47.92852" lon="1.7793">
        <ele>97.286</ele>
        <time>2011-10-30T08:23:13Z</time>
      </trkpt>
      <trkpt lat="47.92817" lon="1.77868">
        <ele>97.679</ele>
        <time>2011-10-30T08:23:26Z</time>
      </trkpt>
      <trkpt lat="47.9279" lon="1.77814">
        <ele>99.173</ele>
        <time>2011-10-30T08:23:37Z</time>
      </trkpt>
      <trkpt lat="47.92754" lon="1.77742">
        <ele>102.207</ele>
        <time>2011-10-30T08:23:54Z</time>
      </trkpt>
      <trkpt lat="47.92715" lon="1.77668">
        <ele>100.998</ele>
        <time>2011-10-30T08:24:08Z</time>
      </trkpt>
      <trkpt lat="47.92689" lon="1.77619">
        <ele>99.322</ele>
        <time>2011-10-30T08:24:16Z</time>
      </trkpt>
      <trkpt lat="47.92659" lon="1.77565">
        <ele>99.391</ele>
        <time>2011-10-30T08:24:29Z</time>
      </trkpt>
      <trkpt lat="47.92646" lon="1.77541">
        <ele>100.266</ele>
        <time>2011-10-30T08:24:39Z</time>
      </trkpt>
      <trkpt lat="47.92646" lon="1.77541">
        <ele>100.362</ele>
        <time>2011-10-30T08:24:42Z</time>
      </trkpt>
      <trkpt lat="47.92606" lon="1.77459">
        <ele>99.633</ele>
        <time>2011-10-30T08:24:54Z</time>
      </trkpt>
      <trkpt lat="47.92562" lon="1.77372">
        <ele>96.39</ele>
        <time>2011-10-30T08:25:07Z</time>
      </trkpt>
      <trkpt lat="47.92546" lon="1.77343">
        <ele>97.83</ele>
        <time>2011-10-30T08:25:13Z</time>
      </trkpt>
      <trkpt lat="47.92507" lon="1.77268">
        <ele>99.176</ele>
        <time>2011-10-30T08:25:29Z</time>
      </trkpt>
      <trkpt lat="47.92467" lon="1.7719">
        <ele>98.814</ele>
        <time>2011-10-30T08:25:44Z</time>
      </trkpt>
      <trkpt lat="47.92438" lon="1.77133">
        <ele>98.599</ele>
        <time>2011-10-30T08:25:55Z</time>
      </trkpt>
      <trkpt lat="47.92413" lon="1.77084">
        <ele>98.698</ele>
        <time>2011-10-30T08:26:05Z</time>
      </trkpt>
      <trkpt lat="47.92401" lon="1.77062">
        <ele>97.99</ele>
        <time>2011-10-30T08:26:11Z</time>
      </trkpt>
      <trkpt lat="47.92385" lon="1.77033">
        <ele>97.473</ele>
        <time>2011-10-30T08:26:16Z</time>
      </trkpt>
      <trkpt lat="47.92405" lon="1.76977">
        <ele>97.559</ele>
        <time>2011-10-30T08:26:26Z</time>
      </trkpt>
      <trkpt lat="47.92408" lon="1.76972">
        <ele>97.56</ele>
        <time>2011-10-30T08:26:27Z</time>
      </trkpt>
      <trkpt lat="47.92437" lon="1.76918">
        <ele>99.594</ele>
        <time>2011-10-30T08:26:39Z</time>
      </trkpt>
      <trkpt lat="47.92457" lon="1.76886">
        <ele>101.331</ele>
        <time>2011-10-30T08:26:48Z</time>
      </trkpt>
      <trkpt lat="47.92486" lon="1.76852">
        <ele>102.578</ele>
        <time>2011-10-30T08:26:59Z</time>
      </trkpt>
      <trkpt lat="47.9251" lon="1.76827">
        <ele>102.976</ele>
        <time>2011-10-30T08:27:07Z</time>
      </trkpt>
      <trkpt lat="47.92539" lon="1.7679">
        <ele>103.328</ele>
        <time>2011-10-30T08:27:17Z</time>
      </trkpt>
      <trkpt lat="47.92571" lon="1.76742">
        <ele>103.678</ele>
        <time>2011-10-30T08:27:28Z</time>
      </trkpt>
      <trkpt lat="47.92587" lon="1.76711">
        <ele>103.738</ele>
        <time>2011-10-30T08:27:34Z</time>
      </trkpt>
      <trkpt lat="47.92595" lon="1.76693">
        <ele>103.434</ele>
        <time>2011-10-30T08:27:38Z</time>
      </trkpt>
      <trkpt lat="47.9259" lon="1.76687">
        <ele>103.187</ele>
        <time>2011-10-30T08:27:42Z</time>
      </trkpt>
      <trkpt lat="47.92587" lon="1.76681">
        <ele>102.797</ele>
        <time>2011-10-30T08:27:44Z</time>
      </trkpt>
      <trkpt lat="47.92566" lon="1.76643">
        <ele>101.472</ele>
        <time>2011-10-30T08:27:53Z</time>
      </trkpt>
      <trkpt lat="47.9256" lon="1.76633">
        <ele>101.222</ele>
        <time>2011-10-30T08:27:54Z</time>
      </trkpt>
      <trkpt lat="47.92551" lon="1.76602">
        <ele>101.155</ele>
        <time>2011-10-30T08:27:58Z</time>
      </trkpt>
      <trkpt lat="47.92534" lon="1.76545">
        <ele>99.224</ele>
        <time>2011-10-30T08:28:08Z</time>
      </trkpt>
      <trkpt lat="47.92508" lon="1.76488">
        <ele>98.689</ele>
        <time>2011-10-30T08:28:19Z</time>
      </trkpt>
      <trkpt lat="47.92481" lon="1.76441">
        <ele>98.632</ele>
        <time>2011-10-30T08:28:29Z</time>
      </trkpt>
      <trkpt lat="47.92474" lon="1.76432">
        <ele>98.647</ele>
        <time>2011-10-30T08:28:30Z</time>
      </trkpt>
      <trkpt lat="47.92442" lon="1.76436">
        <ele>98.78</ele>
        <time>2011-10-30T08:28:41Z</time>
      </trkpt>
      <trkpt lat="47.92414" lon="1.7645">
        <ele>99.555</ele>
        <time>2011-10-30T08:28:51Z</time>
      </trkpt>
      <trkpt lat="47.92352" lon="1.76424">
        <ele>100.641</ele>
        <time>2011-10-30T08:29:04Z</time>
      </trkpt>
      <trkpt lat="47.92317" lon="1.76427">
        <ele>101.675</ele>
        <time>2011-10-30T08:29:12Z</time>
      </trkpt>
      <trkpt lat="47.92267" lon="1.76434">
        <ele>101.072</ele>
        <time>2011-10-30T08:29:23Z</time>
      </trkpt>
      <trkpt lat="47.92218" lon="1.76442">
        <ele>100.382</ele>
        <time>2011-10-30T08:29:34Z</time>
      </trkpt>
      <trkpt lat="47.92174" lon="1.7645">
        <ele>100.091</ele>
        <time>2011-10-30T08:29:43Z</time>
      </trkpt>
      <trkpt lat="47.92164" lon="1.76451">
        <ele>100.021</ele>
        <time>2011-10-30T08:29:45Z</time>
      </trkpt>
      <trkpt lat="47.92121" lon="1.76457">
        <ele>100.16</ele>
        <time>2011-10-30T08:29:55Z</time>
      </trkpt>
      <trkpt lat="47.92102" lon="1.76459">
        <ele>100.57</ele>
        <time>2011-10-30T08:29:59Z</time>
      </trkpt>
      <trkpt lat="47.92084" lon="1.76461">
        <ele>101.179</ele>
        <time>2011-10-30T08:30:04Z</time>
      </trkpt>
      <trkpt lat="47.92062" lon="1.76463">
        <ele>101.671</ele>
        <time>2011-10-30T08:30:11Z</time>
      </trkpt>
      <trkpt lat="47.92045" lon="1.76465">
        <ele>102.04</ele>
        <time>2011-10-30T08:30:16Z</time>
      </trkpt>
      <trkpt lat="47.92" lon="1.7647">
        <ele>102.772</ele>
        <time>2011-10-30T08:30:27Z</time>
      </trkpt>
      <trkpt lat="47.91966" lon="1.76474">
        <ele>103.484</ele>
        <time>2011-10-30T08:30:36Z</time>
      </trkpt>
      <trkpt lat="47.91914" lon="1.76486">
        <ele>103.122</ele>
        <time>2011-10-30T08:30:48Z</time>
      </trkpt>
      <trkpt lat="47.9189" lon="1.76489">
        <ele>102.826</ele>
        <time>2011-10-30T08:30:52Z</time>
      </trkpt>
      <trkpt lat="47.91881" lon="1.7649">
        <ele>102.776</ele>
        <time>2011-10-30T08:30:54Z</time>
      </trkpt>
      <trkpt lat="47.91836" lon="1.76496">
        <ele>102.137</ele>
        <time>2011-10-30T08:31:04Z</time>
      </trkpt>
      <trkpt lat="47.91796" lon="1.76508">
        <ele>102.496</ele>
        <time>2011-10-30T08:36:24Z</time>
      </trkpt>
      <trkpt lat="47.91753" lon="1.76504">
        <ele>101.187</ele>
        <time>2011-10-30T08:36:34Z</time>
      </trkpt>
      <trkpt lat="47.91703" lon="1.76512">
        <ele>100.582</ele>
        <time>2011-10-30T08:36:44Z</time>
      </trkpt>
      <trkpt lat="47.91648" lon="1.7652">
        <ele>99.193</ele>
        <time>2011-10-30T08:36:54Z</time>
      </trkpt>
      <trkpt lat="47.91573" lon="1.7653">
        <ele>98.014</ele>
        <time>2011-10-30T08:37:06Z</time>
      </trkpt>
      <trkpt lat="47.91559" lon="1.76531">
        <ele>97.883</ele>
        <time>2011-10-30T08:37:09Z</time>
      </trkpt>
      <trkpt lat="47.91517" lon="1.76534">
        <ele>97.291</ele>
        <time>2011-10-30T08:37:17Z</time>
      </trkpt>
      <trkpt lat="47.91506" lon="1.76534">
        <ele>97.477</ele>
        <time>2011-10-30T08:37:19Z</time>
      </trkpt>
      <trkpt lat="47.91413" lon="1.76544">
        <ele>97.904</ele>
        <time>2011-10-30T08:37:36Z</time>
      </trkpt>
      <trkpt lat="47.91388" lon="1.76547">
        <ele>98.13</ele>
        <time>2011-10-30T08:37:41Z</time>
      </trkpt>
      <trkpt lat="47.91335" lon="1.76553">
        <ele>98.162</ele>
        <time>2011-10-30T08:37:52Z</time>
      </trkpt>
      <trkpt lat="47.91308" lon="1.76556">
        <ele>98.153</ele>
        <time>2011-10-30T08:37:58Z</time>
      </trkpt>
      <trkpt lat="47.91282" lon="1.76559">
        <ele>98.27</ele>
        <time>2011-10-30T08:38:04Z</time>
      </trkpt>
      <trkpt lat="47.91216" lon="1.76569">
        <ele>100.742</ele>
        <time>2011-10-30T08:38:21Z</time>
      </trkpt>
      <trkpt lat="47.91147" lon="1.76577">
        <ele>102.817</ele>
        <time>2011-10-30T08:38:42Z</time>
      </trkpt>
      <trkpt lat="47.91143" lon="1.76577">
        <ele>103.206</ele>
        <time>2011-10-30T08:38:43Z</time>
      </trkpt>
      <trkpt lat="47.91101" lon="1.76584">
        <ele>102.987</ele>
        <time>2011-10-30T08:38:56Z</time>
      </trkpt>
      <trkpt lat="47.91059" lon="1.76592">
        <ele>103.133</ele>
        <time>2011-10-30T08:39:09Z</time>
      </trkpt>
      <trkpt lat="47.91017" lon="1.76599">
        <ele>103.886</ele>
        <time>2011-10-30T08:39:20Z</time>
      </trkpt>
      <trkpt lat="47.90981" lon="1.76606">
        <ele>103.705</ele>
        <time>2011-10-30T08:39:30Z</time>
      </trkpt>
      <trkpt lat="47.90935" lon="1.76613">
        <ele>103.882</ele>
        <time>2011-10-30T08:39:42Z</time>
      </trkpt>
      <trkpt lat="47.90845" lon="1.76626">
        <ele>104.511</ele>
        <time>2011-10-30T08:40:04Z</time>
      </trkpt>
      <trkpt lat="47.90799" lon="1.76632">
        <ele>105.177</ele>
        <time>2011-10-30T08:40:16Z</time>
      </trkpt>
      <trkpt lat="47.90759" lon="1.76638">
        <ele>105.987</ele>
        <time>2011-10-30T08:40:29Z</time>
      </trkpt>
      <trkpt lat="47.90701" lon="1.76645">
        <ele>106.116</ele>
        <time>2011-10-30T08:40:45Z</time>
      </trkpt>
      <trkpt lat="47.90637" lon="1.76655">
        <ele>106.47</ele>
        <time>2011-10-30T08:41:02Z</time>
      </trkpt>
      <trkpt lat="47.9058" lon="1.76666">
        <ele>106.875</ele>
        <time>2011-10-30T08:41:18Z</time>
      </trkpt>
      <trkpt lat="47.90526" lon="1.76674">
        <ele>107.768</ele>
        <time>2011-10-30T08:41:33Z</time>
      </trkpt>
      <trkpt lat="47.90491" lon="1.76665">
        <ele>107.783</ele>
        <time>2011-10-30T08:41:44Z</time>
      </trkpt>
      <trkpt lat="47.90468" lon="1.76576">
        <ele>107.991</ele>
        <time>2011-10-30T08:42:00Z</time>
      </trkpt>
      <trkpt lat="47.90434" lon="1.76434">
        <ele>107.06</ele>
        <time>2011-10-30T08:42:22Z</time>
      </trkpt>
      <trkpt lat="47.90398" lon="1.7629">
        <ele>106.016</ele>
        <time>2011-10-30T08:42:43Z</time>
      </trkpt>
      <trkpt lat="47.90385" lon="1.76238">
        <ele>105.593</ele>
        <time>2011-10-30T08:42:50Z</time>
      </trkpt>
      <trkpt lat="47.9038" lon="1.76216">
        <ele>104.968</ele>
        <time>2011-10-30T08:42:53Z</time>
      </trkpt>
      <trkpt lat="47.90348" lon="1.76099">
        <ele>105.284</ele>
        <time>2011-10-30T08:43:10Z</time>
      </trkpt>
      <trkpt lat="47.90315" lon="1.75971">
        <ele>104.446</ele>
        <time>2011-10-30T08:43:30Z</time>
      </trkpt>
      <trkpt lat="47.9029" lon="1.75912">
        <ele>102.809</ele>
        <time>2011-10-30T08:43:40Z</time>
      </trkpt>
      <trkpt lat="47.90291" lon="1.75915">
        <ele>101.881</ele>
        <time>2011-10-30T08:56:16Z</time>
      </trkpt>
      <trkpt lat="47.90294" lon="1.76025">
        <ele>102.712</ele>
        <time>2011-10-30T08:56:35Z</time>
      </trkpt>
      <trkpt lat="47.90279" lon="1.76096">
        <ele>102.077</ele>
        <time>2011-10-30T08:56:46Z</time>
      </trkpt>
      <trkpt lat="47.90217" lon="1.76203">
        <ele>102.564</ele>
        <time>2011-10-30T08:57:07Z</time>
      </trkpt>
      <trkpt lat="47.90132" lon="1.76337">
        <ele>101.361</ele>
        <time>2011-10-30T08:57:33Z</time>
      </trkpt>
      <trkpt lat="47.90062" lon="1.76388">
        <ele>100.002</ele>
        <time>2011-10-30T08:57:51Z</time>
      </trkpt>
      <trkpt lat="47.89974" lon="1.76445">
        <ele>97.864</ele>
        <time>2011-10-30T08:58:14Z</time>
      </trkpt>
      <trkpt lat="47.8994" lon="1.7648">
        <ele>98.012</ele>
        <time>2011-10-30T08:58:27Z</time>
      </trkpt>
      <trkpt lat="47.89888" lon="1.76543">
        <ele>99.117</ele>
        <time>2011-10-30T08:58:48Z</time>
      </trkpt>
      <trkpt lat="47.89852" lon="1.76583">
        <ele>102.329</ele>
        <time>2011-10-30T08:59:05Z</time>
      </trkpt>
      <trkpt lat="47.89812" lon="1.7663">
        <ele>103.975</ele>
        <time>2011-10-30T08:59:23Z</time>
      </trkpt>
      <trkpt lat="47.89783" lon="1.76663">
        <ele>104.775</ele>
        <time>2011-10-30T08:59:40Z</time>
      </trkpt>
      <trkpt lat="47.89735" lon="1.76718">
        <ele>105.839</ele>
        <time>2011-10-30T09:00:02Z</time>
      </trkpt>
      <trkpt lat="47.89685" lon="1.76773">
        <ele>105.956</ele>
        <time>2011-10-30T09:00:21Z</time>
      </trkpt>
      <trkpt lat="47.89631" lon="1.76837">
        <ele>103.753</ele>
        <time>2011-10-30T09:00:44Z</time>
      </trkpt>
      <trkpt lat="47.89621" lon="1.76816">
        <ele>103.236</ele>
        <time>2011-10-30T09:00:57Z</time>
      </trkpt>
      <trkpt lat="47.89607" lon="1.76776">
        <ele>102.948</ele>
        <time>2011-10-30T09:01:17Z</time>
      </trkpt>
      <trkpt lat="47.89579" lon="1.76695">
        <ele>101.763</ele>
        <time>2011-10-30T09:01:35Z</time>
      </trkpt>
      <trkpt lat="47.89535" lon="1.76562">
        <ele>99.382</ele>
        <time>2011-10-30T09:01:56Z</time>
      </trkpt>
      <trkpt lat="47.89488" lon="1.76415">
        <ele>97.251</ele>
        <time>2011-10-30T09:02:17Z</time>
      </trkpt>
      <trkpt lat="47.89455" lon="1.76315">
        <ele>98.089</ele>
        <time>2011-10-30T09:02:35Z</time>
      </trkpt>
      <trkpt lat="47.89451" lon="1.76305">
        <ele>98.348</ele>
        <time>2011-10-30T09:02:46Z</time>
      </trkpt>
      <trkpt lat="47.89451" lon="1.76305">
        <ele>98.349</ele>
        <time>2011-10-30T09:02:54Z</time>
      </trkpt>
      <trkpt lat="47.89422" lon="1.76336">
        <ele>98.428</ele>
        <time>2011-10-30T09:03:05Z</time>
      </trkpt>
      <trkpt lat="47.89362" lon="1.76378">
        <ele>99.797</ele>
        <time>2011-10-30T09:03:21Z</time>
      </trkpt>
      <trkpt lat="47.89308" lon="1.76398">
        <ele>102.799</ele>
        <time>2011-10-30T09:03:34Z</time>
      </trkpt>
      <trkpt lat="47.89189" lon="1.76476">
        <ele>105.107</ele>
        <time>2011-10-30T09:04:02Z</time>
      </trkpt>
      <trkpt lat="47.89099" lon="1.76539">
        <ele>101.838</ele>
        <time>2011-10-30T09:04:20Z</time>
      </trkpt>
      <trkpt lat="47.8906" lon="1.76567">
        <ele>101.021</ele>
        <time>2011-10-30T09:04:28Z</time>
      </trkpt>
      <trkpt lat="47.89047" lon="1.76552">
        <ele>100.327</ele>
        <time>2011-10-30T09:04:32Z</time>
      </trkpt>
      <trkpt lat="47.88997" lon="1.76411">
        <ele>97.695</ele>
        <time>2011-10-30T09:04:55Z</time>
      </trkpt>
      <trkpt lat="47.88977" lon="1.76384">
        <ele>97.478</ele>
        <time>2011-10-30T09:05:05Z</time>
      </trkpt>
      <trkpt lat="47.88875" lon="1.76349">
        <ele>97.075</ele>
        <time>2011-10-30T09:05:24Z</time>
      </trkpt>
      <trkpt lat="47.88826" lon="1.76345">
        <ele>96.279</ele>
        <time>2011-10-30T09:05:34Z</time>
      </trkpt>
      <trkpt lat="47.8882" lon="1.76324">
        <ele>96.053</ele>
        <time>2011-10-30T09:05:39Z</time>
      </trkpt>
      <trkpt lat="47.8885" lon="1.76185">
        <ele>95.093</ele>
        <time>2011-10-30T09:05:58Z</time>
      </trkpt>
      <trkpt lat="47.88887" lon="1.76044">
        <ele>96.269</ele>
        <time>2011-10-30T09:06:16Z</time>
      </trkpt>
      <trkpt lat="47.88891" lon="1.75944">
        <ele>96.8</ele>
        <time>2011-10-30T09:06:30Z</time>
      </trkpt>
      <trkpt lat="47.88868" lon="1.75913">
        <ele>96.199</ele>
        <time>2011-10-30T09:06:37Z</time>
      </trkpt>
      <trkpt lat="47.88727" lon="1.75904">
        <ele>93.963</ele>
        <time>2011-10-30T09:07:01Z</time>
      </trkpt>
      <trkpt lat="47.8862" lon="1.75933">
        <ele>94.886</ele>
        <time>2011-10-30T09:07:22Z</time>
      </trkpt>
      <trkpt lat="47.88563" lon="1.75956">
        <ele>95.181</ele>
        <time>2011-10-30T09:07:39Z</time>
      </trkpt>
      <trkpt lat="47.88559" lon="1.75958">
        <ele>95.1</ele>
        <time>2011-10-30T09:07:54Z</time>
      </trkpt>
      <trkpt lat="47.88559" lon="1.75958">
        <ele>95.054</ele>
        <time>2011-10-30T09:08:40Z</time>
      </trkpt>
      <trkpt lat="47.88564" lon="1.75955">
        <ele>95.15</ele>
        <time>2011-10-30T09:08:44Z</time>
      </trkpt>
      <trkpt lat="47.88565" lon="1.75937">
        <ele>94.573</ele>
        <time>2011-10-30T09:08:49Z</time>
      </trkpt>
      <trkpt lat="47.88551" lon="1.75858">
        <ele>94.779</ele>
        <time>2011-10-30T09:09:05Z</time>
      </trkpt>
      <trkpt lat="47.88527" lon="1.75707">
        <ele>94.944</ele>
        <time>2011-10-30T09:09:25Z</time>
      </trkpt>
      <trkpt lat="47.88524" lon="1.75682">
        <ele>94.985</ele>
        <time>2011-10-30T09:09:29Z</time>
      </trkpt>
      <trkpt lat="47.88512" lon="1.75678">
        <ele>94.719</ele>
        <time>2011-10-30T09:09:33Z</time>
      </trkpt>
      <trkpt lat="47.88411" lon="1.75736">
        <ele>93.061</ele>
        <time>2011-10-30T09:09:56Z</time>
      </trkpt>
      <trkpt lat="47.88357" lon="1.75769">
        <ele>94.188</ele>
        <time>2011-10-30T09:10:07Z</time>
      </trkpt>
      <trkpt lat="47.88338" lon="1.7578">
        <ele>94.038</ele>
        <time>2011-10-30T09:10:11Z</time>
      </trkpt>
      <trkpt lat="47.88258" lon="1.75826">
        <ele>92.668</ele>
        <time>2011-10-30T09:10:30Z</time>
      </trkpt>
      <trkpt lat="47.88221" lon="1.75865">
        <ele>94.094</ele>
        <time>2011-10-30T09:10:41Z</time>
      </trkpt>
      <trkpt lat="47.88177" lon="1.75906">
        <ele>95.198</ele>
        <time>2011-10-30T09:10:56Z</time>
      </trkpt>
      <trkpt lat="47.88099" lon="1.75966">
        <ele>94.086</ele>
        <time>2011-10-30T09:11:20Z</time>
      </trkpt>
      <trkpt lat="47.88075" lon="1.76073">
        <ele>95.223</ele>
        <time>2011-10-30T09:11:38Z</time>
      </trkpt>
      <trkpt lat="47.88065" lon="1.76071">
        <ele>95.794</ele>
        <time>2011-10-30T09:11:42Z</time>
      </trkpt>
      <trkpt lat="47.88041" lon="1.76003">
        <ele>95.892</ele>
        <time>2011-10-30T09:11:54Z</time>
      </trkpt>
      <trkpt lat="47.87996" lon="1.75882">
        <ele>95.268</ele>
        <time>2011-10-30T09:12:15Z</time>
      </trkpt>
      <trkpt lat="47.87917" lon="1.75729">
        <ele>94.206</ele>
        <time>2011-10-30T09:12:44Z</time>
      </trkpt>
      <trkpt lat="47.87859" lon="1.7562">
        <ele>94.516</ele>
        <time>2011-10-30T09:13:07Z</time>
      </trkpt>
      <trkpt lat="47.87788" lon="1.75492">
        <ele>93.857</ele>
        <time>2011-10-30T09:13:34Z</time>
      </trkpt>
      <trkpt lat="47.87724" lon="1.75373">
        <ele>91.417</ele>
        <time>2011-10-30T09:13:58Z</time>
      </trkpt>
      <trkpt lat="47.8771" lon="1.75348">
        <ele>90.901</ele>
        <time>2011-10-30T09:14:03Z</time>
      </trkpt>
      <trkpt lat="47.87672" lon="1.75263">
        <ele>87.624</ele>
        <time>2011-10-30T09:14:17Z</time>
      </trkpt>
      <trkpt lat="47.87624" lon="1.75177">
        <ele>88.072</ele>
        <time>2011-10-30T09:14:34Z</time>
      </trkpt>
      <trkpt lat="47.87562" lon="1.7507">
        <ele>87.702</ele>
        <time>2011-10-30T09:14:56Z</time>
      </trkpt>
      <trkpt lat="47.87542" lon="1.75032">
        <ele>86.921</ele>
        <time>2011-10-30T09:15:04Z</time>
      </trkpt>
      <trkpt lat="47.8753" lon="1.75007">
        <ele>87.067</ele>
        <time>2011-10-30T09:15:09Z</time>
      </trkpt>
      <trkpt lat="47.87511" lon="1.74935">
        <ele>86.63</ele>
        <time>2011-10-30T09:15:24Z</time>
      </trkpt>
      <trkpt lat="47.87522" lon="1.74848">
        <ele>85.21</ele>
        <time>2011-10-30T09:15:39Z</time>
      </trkpt>
      <trkpt lat="47.87483" lon="1.74851">
        <ele>86.171</ele>
        <time>2011-10-30T09:15:49Z</time>
      </trkpt>
      <trkpt lat="47.87413" lon="1.74863">
        <ele>88.814</ele>
        <time>2011-10-30T09:16:08Z</time>
      </trkpt>
      <trkpt lat="47.8732" lon="1.74878">
        <ele>91.044</ele>
        <time>2011-10-30T09:16:31Z</time>
      </trkpt>
      <trkpt lat="47.87268" lon="1.74873">
        <ele>91.395</ele>
        <time>2011-10-30T09:16:46Z</time>
      </trkpt>
      <trkpt lat="47.87258" lon="1.74865">
        <ele>91.05</ele>
        <time>2011-10-30T09:17:02Z</time>
      </trkpt>
      <trkpt lat="47.8724" lon="1.74853">
        <ele>90.583</ele>
        <time>2011-10-30T09:19:40Z</time>
      </trkpt>
      <trkpt lat="47.87176" lon="1.7481">
        <ele>90.821</ele>
        <time>2011-10-30T09:19:59Z</time>
      </trkpt>
      <trkpt lat="47.87066" lon="1.7474">
        <ele>91.705</ele>
        <time>2011-10-30T09:20:28Z</time>
      </trkpt>
      <trkpt lat="47.87035" lon="1.74702">
        <ele>92.508</ele>
        <time>2011-10-30T09:20:39Z</time>
      </trkpt>
      <trkpt lat="47.86981" lon="1.74608">
        <ele>93.17</ele>
        <time>2011-10-30T09:20:58Z</time>
      </trkpt>
      <trkpt lat="47.86925" lon="1.74521">
        <ele>92.145</ele>
        <time>2011-10-30T09:21:14Z</time>
      </trkpt>
      <trkpt lat="47.86872" lon="1.74463">
        <ele>90.125</ele>
        <time>2011-10-30T09:21:26Z</time>
      </trkpt>
      <trkpt lat="47.86855" lon="1.74447">
        <ele>88.985</ele>
        <time>2011-10-30T09:21:29Z</time>
      </trkpt>
      <trkpt lat="47.86843" lon="1.74438">
        <ele>88.113</ele>
        <time>2011-10-30T09:21:31Z</time>
      </trkpt>
      <trkpt lat="47.86817" lon="1.74433">
        <ele>85.937</ele>
        <time>2011-10-30T09:21:36Z</time>
      </trkpt>
      <trkpt lat="47.86778" lon="1.74474">
        <ele>86.373</ele>
        <time>2011-10-30T09:21:48Z</time>
      </trkpt>
      <trkpt lat="47.86726" lon="1.74545">
        <ele>89.6</ele>
        <time>2011-10-30T09:22:06Z</time>
      </trkpt>
      <trkpt lat="47.86656" lon="1.74585">
        <ele>89.458</ele>
        <time>2011-10-30T09:22:23Z</time>
      </trkpt>
      <trkpt lat="47.86612" lon="1.74623">
        <ele>88.32</ele>
        <time>2011-10-30T09:22:36Z</time>
      </trkpt>
      <trkpt lat="47.86612" lon="1.74623">
        <ele>87.939</ele>
        <time>2011-10-30T09:22:41Z</time>
      </trkpt>
      <trkpt lat="47.86597" lon="1.74583">
        <ele>86.383</ele>
        <time>2011-10-30T09:22:46Z</time>
      </trkpt>
      <trkpt lat="47.86597" lon="1.74561">
        <ele>85.403</ele>
        <time>2011-10-30T09:22:49Z</time>
      </trkpt>
      <trkpt lat="47.86572" lon="1.7455">
        <ele>83.515</ele>
        <time>2011-10-30T09:22:55Z</time>
      </trkpt>
      <trkpt lat="47.86556" lon="1.74558">
        <ele>83.375</ele>
        <time>2011-10-30T09:23:01Z</time>
      </trkpt>
      <trkpt lat="47.86558" lon="1.74587">
        <ele>84.068</ele>
        <time>2011-10-30T09:23:09Z</time>
      </trkpt>
      <trkpt lat="47.86574" lon="1.74634">
        <ele>86.99</ele>
        <time>2011-10-30T09:23:26Z</time>
      </trkpt>
      <trkpt lat="47.86576" lon="1.74639">
        <ele>88.123</ele>
        <time>2011-10-30T09:23:40Z</time>
      </trkpt>
      <trkpt lat="47.86576" lon="1.74639">
        <ele>87.904</ele>
        <time>2011-10-30T09:24:14Z</time>
      </trkpt>
      <trkpt lat="47.86576" lon="1.74639">
        <ele>87.86</ele>
        <time>2011-10-30T09:24:34Z</time>
      </trkpt>
      <trkpt lat="47.86562" lon="1.74598">
        <ele>86.063</ele>
        <time>2011-10-30T09:24:44Z</time>
      </trkpt>
      <trkpt lat="47.86548" lon="1.7455">
        <ele>83.642</ele>
        <time>2011-10-30T09:24:50Z</time>
      </trkpt>
      <trkpt lat="47.86541" lon="1.74537">
        <ele>82.553</ele>
        <time>2011-10-30T09:24:54Z</time>
      </trkpt>
      <trkpt lat="47.86552" lon="1.74558">
        <ele>81.567</ele>
        <time>2011-10-30T09:24:58Z</time>
      </trkpt>
      <trkpt lat="47.865" lon="1.74575">
        <ele>81.593</ele>
        <time>2011-10-30T09:25:09Z</time>
      </trkpt>
      <trkpt lat="47.86497" lon="1.74578">
        <ele>81.57</ele>
        <time>2011-10-30T09:25:10Z</time>
      </trkpt>
      <trkpt lat="47.86463" lon="1.74611">
        <ele>81.273</ele>
        <time>2011-10-30T09:25:19Z</time>
      </trkpt>
      <trkpt lat="47.86419" lon="1.74647">
        <ele>81.829</ele>
        <time>2011-10-30T09:25:30Z</time>
      </trkpt>
      <trkpt lat="47.86374" lon="1.74664">
        <ele>81.871</ele>
        <time>2011-10-30T09:25:40Z</time>
      </trkpt>
      <trkpt lat="47.86331" lon="1.74683">
        <ele>83.043</ele>
        <time>2011-10-30T09:25:55Z</time>
      </trkpt>
      <trkpt lat="47.86319" lon="1.74693">
        <ele>82.766</ele>
        <time>2011-10-30T09:25:59Z</time>
      </trkpt>
      <trkpt lat="47.86307" lon="1.74701">
        <ele>81.916</ele>
        <time>2011-10-30T09:26:02Z</time>
      </trkpt>
      <trkpt lat="47.86283" lon="1.74721">
        <ele>81.307</ele>
        <time>2011-10-30T09:26:09Z</time>
      </trkpt>
      <trkpt lat="47.8629" lon="1.7477">
        <ele>84.022</ele>
        <time>2011-10-30T09:26:18Z</time>
      </trkpt>
      <trkpt lat="47.863" lon="1.74806">
        <ele>86.198</ele>
        <time>2011-10-30T09:26:25Z</time>
      </trkpt>
      <trkpt lat="47.86309" lon="1.74841">
        <ele>88.321</ele>
        <time>2011-10-30T09:26:32Z</time>
      </trkpt>
      <trkpt lat="47.86315" lon="1.74857">
        <ele>88.981</ele>
        <time>2011-10-30T09:26:36Z</time>
      </trkpt>
      <trkpt lat="47.86313" lon="1.74864">
        <ele>88.916</ele>
        <time>2011-10-30T09:26:40Z</time>
      </trkpt>
      <trkpt lat="47.86286" lon="1.74909">
        <ele>88.162</ele>
        <time>2011-10-30T09:26:52Z</time>
      </trkpt>
      <trkpt lat="47.86257" lon="1.7495">
        <ele>88.122</ele>
        <time>2011-10-30T09:27:02Z</time>
      </trkpt>
      <trkpt lat="47.86221" lon="1.74993">
        <ele>90.557</ele>
        <time>2011-10-30T09:27:20Z</time>
      </trkpt>
      <trkpt lat="47.86198" lon="1.75012">
        <ele>91.032</ele>
        <time>2011-10-30T09:27:34Z</time>
      </trkpt>
      <trkpt lat="47.86144" lon="1.75054">
        <ele>90.709</ele>
        <time>2011-10-30T09:27:54Z</time>
      </trkpt>
      <trkpt lat="47.86051" lon="1.75114">
        <ele>89.603</ele>
        <time>2011-10-30T09:28:16Z</time>
      </trkpt>
      <trkpt lat="47.85977" lon="1.75181">
        <ele>86.624</ele>
        <time>2011-10-30T09:28:34Z</time>
      </trkpt>
      <trkpt lat="47.85895" lon="1.75272">
        <ele>84.898</ele>
        <time>2011-10-30T09:28:52Z</time>
      </trkpt>
      <trkpt lat="47.8589" lon="1.75275">
        <ele>85.078</ele>
        <time>2011-10-30T09:28:53Z</time>
      </trkpt>
      <trkpt lat="47.85814" lon="1.75312">
        <ele>88.582</ele>
        <time>2011-10-30T09:29:06Z</time>
      </trkpt>
      <trkpt lat="47.85801" lon="1.75318">
        <ele>89.589</ele>
        <time>2011-10-30T09:29:09Z</time>
      </trkpt>
      <trkpt lat="47.85796" lon="1.75336">
        <ele>91.134</ele>
        <time>2011-10-30T09:29:13Z</time>
      </trkpt>
      <trkpt lat="47.8581" lon="1.75394">
        <ele>91.793</ele>
        <time>2011-10-30T09:29:27Z</time>
      </trkpt>
      <trkpt lat="47.85806" lon="1.75425">
        <ele>91.785</ele>
        <time>2011-10-30T09:29:39Z</time>
      </trkpt>
      <trkpt lat="47.85779" lon="1.75449">
        <ele>89.767</ele>
        <time>2011-10-30T09:29:53Z</time>
      </trkpt>
      <trkpt lat="47.85775" lon="1.75451">
        <ele>89.769</ele>
        <time>2011-10-30T09:29:54Z</time>
      </trkpt>
      <trkpt lat="47.85759" lon="1.75465">
        <ele>86.527</ele>
        <time>2011-10-30T09:29:59Z</time>
      </trkpt>
      <trkpt lat="47.85749" lon="1.75473">
        <ele>85.389</ele>
        <time>2011-10-30T09:30:01Z</time>
      </trkpt>
      <trkpt lat="47.85736" lon="1.75482">
        <ele>83.749</ele>
        <time>2011-10-30T09:30:03Z</time>
      </trkpt>
      <trkpt lat="47.85721" lon="1.75493">
        <ele>82.894</ele>
        <time>2011-10-30T09:30:05Z</time>
      </trkpt>
      <trkpt lat="47.857" lon="1.75502">
        <ele>81.562</ele>
        <time>2011-10-30T09:30:08Z</time>
      </trkpt>
      <trkpt lat="47.85694" lon="1.75504">
        <ele>81.861</ele>
        <time>2011-10-30T09:30:09Z</time>
      </trkpt>
      <trkpt lat="47.85682" lon="1.75507">
        <ele>81.343</ele>
        <time>2011-10-30T09:30:11Z</time>
      </trkpt>
      <trkpt lat="47.85654" lon="1.75514">
        <ele>81.249</ele>
        <time>2011-10-30T09:30:18Z</time>
      </trkpt>
      <trkpt lat="47.85619" lon="1.75496">
        <ele>81.452</ele>
        <time>2011-10-30T09:30:25Z</time>
      </trkpt>
      <trkpt lat="47.85608" lon="1.75477">
        <ele>81.495</ele>
        <time>2011-10-30T09:30:29Z</time>
      </trkpt>
      <trkpt lat="47.85544" lon="1.75369">
        <ele>79.881</ele>
        <time>2011-10-30T09:30:48Z</time>
      </trkpt>
      <trkpt lat="47.85522" lon="1.75349">
        <ele>80.143</ele>
        <time>2011-10-30T09:30:53Z</time>
      </trkpt>
      <trkpt lat="47.85519" lon="1.75336">
        <ele>79.934</ele>
        <time>2011-10-30T09:30:56Z</time>
      </trkpt>
      <trkpt lat="47.8551" lon="1.75313">
        <ele>79.939</ele>
        <time>2011-10-30T09:31:00Z</time>
      </trkpt>
      <trkpt lat="47.85479" lon="1.75219">
        <ele>80.172</ele>
        <time>2011-10-30T09:31:15Z</time>
      </trkpt>
      <trkpt lat="47.85475" lon="1.75199">
        <ele>80.007</ele>
        <time>2011-10-30T09:31:18Z</time>
      </trkpt>
      <trkpt lat="47.85475" lon="1.75165">
        <ele>80.101</ele>
        <time>2011-10-30T09:31:29Z</time>
      </trkpt>
      <trkpt lat="47.85475" lon="1.75165">
        <ele>80.132</ele>
        <time>2011-10-30T09:31:30Z</time>
      </trkpt>
      <trkpt lat="47.85477" lon="1.7515">
        <ele>80.002</ele>
        <time>2011-10-30T09:31:33Z</time>
      </trkpt>
      <trkpt lat="47.855" lon="1.7512">
        <ele>81.047</ele>
        <time>2011-10-30T09:31:41Z</time>
      </trkpt>
      <trkpt lat="47.85505" lon="1.75115">
        <ele>81.269</ele>
        <time>2011-10-30T09:31:44Z</time>
      </trkpt>
      <trkpt lat="47.85507" lon="1.75113">
        <ele>80.979</ele>
        <time>2011-10-30T09:31:46Z</time>
      </trkpt>
      <trkpt lat="47.85467" lon="1.75062">
        <ele>81.832</ele>
        <time>2011-10-30T09:31:56Z</time>
      </trkpt>
      <trkpt lat="47.85456" lon="1.7505">
        <ele>81.578</ele>
        <time>2011-10-30T09:31:59Z</time>
      </trkpt>
      <trkpt lat="47.85439" lon="1.75018">
        <ele>81.321</ele>
        <time>2011-10-30T09:32:05Z</time>
      </trkpt>
      <trkpt lat="47.85428" lon="1.74985">
        <ele>81.669</ele>
        <time>2011-10-30T09:32:10Z</time>
      </trkpt>
      <trkpt lat="47.85374" lon="1.7482">
        <ele>81.006</ele>
        <time>2011-10-30T09:32:35Z</time>
      </trkpt>
      <trkpt lat="47.85337" lon="1.74705">
        <ele>80.888</ele>
        <time>2011-10-30T09:32:54Z</time>
      </trkpt>
      <trkpt lat="47.8528" lon="1.74717">
        <ele>79.526</ele>
        <time>2011-10-30T09:32:59Z</time>
      </trkpt>
      <trkpt lat="47.85288" lon="1.74742">
        <ele>79.631</ele>
        <time>2011-10-30T09:33:09Z</time>
      </trkpt>
      <trkpt lat="47.8528" lon="1.74736">
        <ele>79.468</ele>
        <time>2011-10-30T09:33:13Z</time>
      </trkpt>
      <trkpt lat="47.85277" lon="1.74718">
        <ele>79.482</ele>
        <time>2011-10-30T09:33:17Z</time>
      </trkpt>
      <trkpt lat="47.85265" lon="1.7469">
        <ele>79.878</ele>
        <time>2011-10-30T09:33:24Z</time>
      </trkpt>
      <trkpt lat="47.85266" lon="1.74681">
        <ele>79.878</ele>
        <time>2011-10-30T09:33:26Z</time>
      </trkpt>
      <trkpt lat="47.85247" lon="1.7467">
        <ele>79.872</ele>
        <time>2011-10-30T09:33:32Z</time>
      </trkpt>
      <trkpt lat="47.85241" lon="1.74663">
        <ele>79.393</ele>
        <time>2011-10-30T09:33:34Z</time>
      </trkpt>
      <trkpt lat="47.85231" lon="1.74621">
        <ele>79.817</ele>
        <time>2011-10-30T09:33:43Z</time>
      </trkpt>
      <trkpt lat="47.85233" lon="1.74616">
        <ele>79.438</ele>
        <time>2011-10-30T09:33:44Z</time>
      </trkpt>
      <trkpt lat="47.85234" lon="1.74589">
        <ele>78.829</ele>
        <time>2011-10-30T09:33:49Z</time>
      </trkpt>
      <trkpt lat="47.85232" lon="1.7456">
        <ele>79.013</ele>
        <time>2011-10-30T09:33:55Z</time>
      </trkpt>
      <trkpt lat="47.85237" lon="1.74542">
        <ele>78.918</ele>
        <time>2011-10-30T09:33:58Z</time>
      </trkpt>
      <trkpt lat="47.85236" lon="1.74517">
        <ele>78.592</ele>
        <time>2011-10-30T09:34:02Z</time>
      </trkpt>
      <trkpt lat="47.85191" lon="1.74386">
        <ele>78.844</ele>
        <time>2011-10-30T09:34:24Z</time>
      </trkpt>
      <trkpt lat="47.85149" lon="1.7426">
        <ele>79.201</ele>
        <time>2011-10-30T09:34:44Z</time>
      </trkpt>
      <trkpt lat="47.85108" lon="1.74146">
        <ele>78.446</ele>
        <time>2011-10-30T09:35:05Z</time>
      </trkpt>
      <trkpt lat="47.85095" lon="1.74112">
        <ele>78.184</ele>
        <time>2011-10-30T09:35:13Z</time>
      </trkpt>
      <trkpt lat="47.85059" lon="1.73983">
        <ele>78.317</ele>
        <time>2011-10-30T09:35:30Z</time>
      </trkpt>
      <trkpt lat="47.85059" lon="1.73945">
        <ele>78.151</ele>
        <time>2011-10-30T09:35:35Z</time>
      </trkpt>
      <trkpt lat="47.85023" lon="1.73812">
        <ele>78.557</ele>
        <time>2011-10-30T09:35:54Z</time>
      </trkpt>
      <trkpt lat="47.85001" lon="1.73731">
        <ele>78.134</ele>
        <time>2011-10-30T09:36:06Z</time>
      </trkpt>
      <trkpt lat="47.84965" lon="1.73626">
        <ele>78.319</ele>
        <time>2011-10-30T09:36:24Z</time>
      </trkpt>
      <trkpt lat="47.8496" lon="1.73615">
        <ele>78.43</ele>
        <time>2011-10-30T09:36:26Z</time>
      </trkpt>
      <trkpt lat="47.84941" lon="1.73597">
        <ele>78.728</ele>
        <time>2011-10-30T09:36:31Z</time>
      </trkpt>
      <trkpt lat="47.84921" lon="1.73587">
        <ele>78.731</ele>
        <time>2011-10-30T09:36:36Z</time>
      </trkpt>
      <trkpt lat="47.84894" lon="1.73608">
        <ele>79.32</ele>
        <time>2011-10-30T09:36:44Z</time>
      </trkpt>
      <trkpt lat="47.84894" lon="1.73614">
        <ele>79.106</ele>
        <time>2011-10-30T09:36:45Z</time>
      </trkpt>
      <trkpt lat="47.84898" lon="1.73655">
        <ele>78.811</ele>
        <time>2011-10-30T09:36:52Z</time>
      </trkpt>
      <trkpt lat="47.84912" lon="1.73717">
        <ele>78.594</ele>
        <time>2011-10-30T09:37:04Z</time>
      </trkpt>
      <trkpt lat="47.84912" lon="1.73717">
        <ele>78.703</ele>
        <time>2011-10-30T09:37:21Z</time>
      </trkpt>
      <trkpt lat="47.84918" lon="1.73742">
        <ele>79.14</ele>
        <time>2011-10-30T09:37:53Z</time>
      </trkpt>
      <trkpt lat="47.84936" lon="1.73828">
        <ele>79.759</ele>
        <time>2011-10-30T09:38:09Z</time>
      </trkpt>
      <trkpt lat="47.84939" lon="1.73842">
        <ele>79.997</ele>
        <time>2011-10-30T09:38:11Z</time>
      </trkpt>
      <trkpt lat="47.84964" lon="1.73929">
        <ele>79.472</ele>
        <time>2011-10-30T09:38:24Z</time>
      </trkpt>
      <trkpt lat="47.84967" lon="1.73943">
        <ele>80.018</ele>
        <time>2011-10-30T09:38:26Z</time>
      </trkpt>
      <trkpt lat="47.84993" lon="1.74052">
        <ele>80.757</ele>
        <time>2011-10-30T09:38:42Z</time>
      </trkpt>
      <trkpt lat="47.85" lon="1.74077">
        <ele>80.684</ele>
        <time>2011-10-30T09:38:46Z</time>
      </trkpt>
      <trkpt lat="47.85004" lon="1.7409">
        <ele>80.181</ele>
        <time>2011-10-30T09:38:48Z</time>
      </trkpt>
      <trkpt lat="47.85007" lon="1.74103">
        <ele>79.939</ele>
        <time>2011-10-30T09:38:50Z</time>
      </trkpt>
      <trkpt lat="47.85012" lon="1.74122">
        <ele>80.485</ele>
        <time>2011-10-30T09:38:53Z</time>
      </trkpt>
      <trkpt lat="47.85021" lon="1.7416">
        <ele>80.8</ele>
        <time>2011-10-30T09:38:59Z</time>
      </trkpt>
      <trkpt lat="47.85033" lon="1.74215">
        <ele>81.079</ele>
        <time>2011-10-30T09:39:07Z</time>
      </trkpt>
      <trkpt lat="47.85044" lon="1.74248">
        <ele>81.617</ele>
        <time>2011-10-30T09:39:12Z</time>
      </trkpt>
      <trkpt lat="47.85099" lon="1.74401">
        <ele>79.683</ele>
        <time>2011-10-30T09:39:33Z</time>
      </trkpt>
      <trkpt lat="47.85167" lon="1.74576">
        <ele>80.355</ele>
        <time>2011-10-30T09:39:57Z</time>
      </trkpt>
      <trkpt lat="47.85228" lon="1.74723">
        <ele>80.262</ele>
        <time>2011-10-30T09:40:18Z</time>
      </trkpt>
      <trkpt lat="47.85231" lon="1.74729">
        <ele>80.853</ele>
        <time>2011-10-30T09:40:19Z</time>
      </trkpt>
      <trkpt lat="47.85307" lon="1.74853">
        <ele>79.888</ele>
        <time>2011-10-30T09:40:38Z</time>
      </trkpt>
      <trkpt lat="47.85371" lon="1.7499">
        <ele>80.15</ele>
        <time>2011-10-30T09:40:57Z</time>
      </trkpt>
      <trkpt lat="47.85436" lon="1.75138">
        <ele>79.558</ele>
        <time>2011-10-30T09:41:18Z</time>
      </trkpt>
      <trkpt lat="47.85451" lon="1.75155">
        <ele>78.946</ele>
        <time>2011-10-30T09:41:27Z</time>
      </trkpt>
      <trkpt lat="47.85479" lon="1.75219">
        <ele>79.504</ele>
        <time>2011-10-30T09:41:37Z</time>
      </trkpt>
      <trkpt lat="47.85509" lon="1.7531">
        <ele>79.161</ele>
        <time>2011-10-30T09:41:49Z</time>
      </trkpt>
      <trkpt lat="47.85523" lon="1.75353">
        <ele>79.017</ele>
        <time>2011-10-30T09:41:55Z</time>
      </trkpt>
      <trkpt lat="47.8552" lon="1.75376">
        <ele>79.009</ele>
        <time>2011-10-30T09:41:58Z</time>
      </trkpt>
      <trkpt lat="47.85527" lon="1.75424">
        <ele>79.048</ele>
        <time>2011-10-30T09:42:03Z</time>
      </trkpt>
      <trkpt lat="47.8554" lon="1.75457">
        <ele>78.644</ele>
        <time>2011-10-30T09:42:07Z</time>
      </trkpt>
      <trkpt lat="47.85573" lon="1.75514">
        <ele>78.81</ele>
        <time>2011-10-30T09:42:18Z</time>
      </trkpt>
      <trkpt lat="47.85612" lon="1.75537">
        <ele>79.304</ele>
        <time>2011-10-30T09:42:29Z</time>
      </trkpt>
      <trkpt lat="47.85627" lon="1.75528">
        <ele>79.945</ele>
        <time>2011-10-30T09:42:37Z</time>
      </trkpt>
      <trkpt lat="47.8562" lon="1.75533">
        <ele>79.505</ele>
        <time>2011-10-30T09:42:42Z</time>
      </trkpt>
      <trkpt lat="47.85612" lon="1.75537">
        <ele>79.396</ele>
        <time>2011-10-30T09:42:44Z</time>
      </trkpt>
      <trkpt lat="47.85602" lon="1.75574">
        <ele>79.402</ele>
        <time>2011-10-30T09:42:50Z</time>
      </trkpt>
      <trkpt lat="47.85609" lon="1.75601">
        <ele>79.705</ele>
        <time>2011-10-30T09:42:55Z</time>
      </trkpt>
      <trkpt lat="47.85628" lon="1.75647">
        <ele>79.917</ele>
        <time>2011-10-30T09:43:03Z</time>
      </trkpt>
      <trkpt lat="47.85633" lon="1.75667">
        <ele>80.04</ele>
        <time>2011-10-30T09:43:06Z</time>
      </trkpt>
      <trkpt lat="47.85643" lon="1.75687">
        <ele>80.082</ele>
        <time>2011-10-30T09:43:10Z</time>
      </trkpt>
      <trkpt lat="47.85656" lon="1.75718">
        <ele>79.88</ele>
        <time>2011-10-30T09:43:23Z</time>
      </trkpt>
      <trkpt lat="47.85656" lon="1.75718">
        <ele>79.557</ele>
        <time>2011-10-30T09:44:00Z</time>
      </trkpt>
      <trkpt lat="47.85656" lon="1.75718">
        <ele>80.768</ele>
        <time>2011-10-30T09:51:20Z</time>
      </trkpt>
      <trkpt lat="47.85663" lon="1.75735">
        <ele>80.607</ele>
        <time>2011-10-30T09:51:33Z</time>
      </trkpt>
      <trkpt lat="47.85688" lon="1.75789">
        <ele>81.677</ele>
        <time>2011-10-30T09:51:47Z</time>
      </trkpt>
      <trkpt lat="47.85723" lon="1.75851">
        <ele>81.826</ele>
        <time>2011-10-30T09:51:58Z</time>
      </trkpt>
      <trkpt lat="47.85737" lon="1.75874">
        <ele>82.094</ele>
        <time>2011-10-30T09:52:02Z</time>
      </trkpt>
      <trkpt lat="47.85757" lon="1.75907">
        <ele>81.92</ele>
        <time>2011-10-30T09:52:08Z</time>
      </trkpt>
      <trkpt lat="47.85769" lon="1.75931">
        <ele>81.859</ele>
        <time>2011-10-30T09:52:12Z</time>
      </trkpt>
      <trkpt lat="47.85794" lon="1.75966">
        <ele>81.875</ele>
        <time>2011-10-30T09:52:19Z</time>
      </trkpt>
      <trkpt lat="47.85805" lon="1.75982">
        <ele>81.732</ele>
        <time>2011-10-30T09:52:22Z</time>
      </trkpt>
      <trkpt lat="47.85832" lon="1.76023">
        <ele>82.014</ele>
        <time>2011-10-30T09:52:30Z</time>
      </trkpt>
      <trkpt lat="47.85857" lon="1.76057">
        <ele>81.912</ele>
        <time>2011-10-30T09:52:37Z</time>
      </trkpt>
      <trkpt lat="47.85874" lon="1.76081">
        <ele>81.956</ele>
        <time>2011-10-30T09:52:42Z</time>
      </trkpt>
      <trkpt lat="47.85906" lon="1.76096">
        <ele>81.321</ele>
        <time>2011-10-30T09:52:49Z</time>
      </trkpt>
      <trkpt lat="47.85942" lon="1.76153">
        <ele>80.725</ele>
        <time>2011-10-30T09:52:58Z</time>
      </trkpt>
      <trkpt lat="47.85951" lon="1.76174">
        <ele>80.182</ele>
        <time>2011-10-30T09:53:01Z</time>
      </trkpt>
      <trkpt lat="47.85959" lon="1.76194">
        <ele>79.961</ele>
        <time>2011-10-30T09:53:04Z</time>
      </trkpt>
      <trkpt lat="47.85967" lon="1.76205">
        <ele>79.855</ele>
        <time>2011-10-30T09:53:06Z</time>
      </trkpt>
      <trkpt lat="47.85988" lon="1.76238">
        <ele>79.057</ele>
        <time>2011-10-30T09:53:16Z</time>
      </trkpt>
      <trkpt lat="47.85994" lon="1.76248">
        <ele>79.391</ele>
        <time>2011-10-30T09:53:22Z</time>
      </trkpt>
      <trkpt lat="47.85995" lon="1.7625">
        <ele>79.679</ele>
        <time>2011-10-30T09:53:26Z</time>
      </trkpt>
      <trkpt lat="47.85998" lon="1.76254">
        <ele>79.163</ele>
        <time>2011-10-30T09:53:30Z</time>
      </trkpt>
      <trkpt lat="47.86028" lon="1.76303">
        <ele>80.597</ele>
        <time>2011-10-30T09:53:41Z</time>
      </trkpt>
      <trkpt lat="47.86035" lon="1.76312">
        <ele>81.478</ele>
        <time>2011-10-30T09:53:43Z</time>
      </trkpt>
      <trkpt lat="47.86086" lon="1.76394">
        <ele>81.312</ele>
        <time>2011-10-30T09:53:59Z</time>
      </trkpt>
      <trkpt lat="47.86101" lon="1.76429">
        <ele>82.33</ele>
        <time>2011-10-30T09:54:10Z</time>
      </trkpt>
      <trkpt lat="47.86123" lon="1.76423">
        <ele>81.954</ele>
        <time>2011-10-30T09:54:14Z</time>
      </trkpt>
      <trkpt lat="47.86116" lon="1.76425">
        <ele>82.28</ele>
        <time>2011-10-30T09:54:19Z</time>
      </trkpt>
      <trkpt lat="47.86115" lon="1.76415">
        <ele>82.783</ele>
        <time>2011-10-30T09:54:23Z</time>
      </trkpt>
      <trkpt lat="47.86105" lon="1.7637">
        <ele>85.612</ele>
        <time>2011-10-30T09:54:34Z</time>
      </trkpt>
      <trkpt lat="47.86108" lon="1.76362">
        <ele>86.22</ele>
        <time>2011-10-30T09:54:38Z</time>
      </trkpt>
      <trkpt lat="47.86111" lon="1.76368">
        <ele>86.232</ele>
        <time>2011-10-30T09:54:40Z</time>
      </trkpt>
      <trkpt lat="47.86126" lon="1.76421">
        <ele>86.826</ele>
        <time>2011-10-30T09:54:49Z</time>
      </trkpt>
      <trkpt lat="47.8613" lon="1.76434">
        <ele>87.024</ele>
        <time>2011-10-30T09:54:51Z</time>
      </trkpt>
      <trkpt lat="47.8613" lon="1.76461">
        <ele>87.03</ele>
        <time>2011-10-30T09:54:55Z</time>
      </trkpt>
      <trkpt lat="47.86154" lon="1.76536">
        <ele>86.101</ele>
        <time>2011-10-30T09:55:10Z</time>
      </trkpt>
      <trkpt lat="47.8618" lon="1.76589">
        <ele>85.941</ele>
        <time>2011-10-30T09:55:21Z</time>
      </trkpt>
      <trkpt lat="47.8622" lon="1.76655">
        <ele>88.535</ele>
        <time>2011-10-30T09:55:34Z</time>
      </trkpt>
      <trkpt lat="47.86247" lon="1.76707">
        <ele>91.006</ele>
        <time>2011-10-30T09:55:47Z</time>
      </trkpt>
      <trkpt lat="47.86274" lon="1.76769">
        <ele>90.912</ele>
        <time>2011-10-30T09:55:59Z</time>
      </trkpt>
      <trkpt lat="47.86315" lon="1.76874">
        <ele>90.734</ele>
        <time>2011-10-30T09:56:14Z</time>
      </trkpt>
      <trkpt lat="47.86365" lon="1.76994">
        <ele>91.056</ele>
        <time>2011-10-30T09:56:29Z</time>
      </trkpt>
      <trkpt lat="47.86371" lon="1.77008">
        <ele>92.48</ele>
        <time>2011-10-30T09:56:32Z</time>
      </trkpt>
      <trkpt lat="47.86397" lon="1.77076">
        <ele>91.218</ele>
        <time>2011-10-30T09:56:44Z</time>
      </trkpt>
      <trkpt lat="47.86434" lon="1.77191">
        <ele>91.236</ele>
        <time>2011-10-30T09:57:01Z</time>
      </trkpt>
      <trkpt lat="47.86452" lon="1.77246">
        <ele>93.145</ele>
        <time>2011-10-30T09:57:12Z</time>
      </trkpt>
      <trkpt lat="47.86488" lon="1.77341">
        <ele>93.264</ele>
        <time>2011-10-30T09:57:29Z</time>
      </trkpt>
      <trkpt lat="47.86506" lon="1.7739">
        <ele>92.854</ele>
        <time>2011-10-30T09:57:36Z</time>
      </trkpt>
      <trkpt lat="47.86535" lon="1.77461">
        <ele>91.877</ele>
        <time>2011-10-30T09:57:47Z</time>
      </trkpt>
      <trkpt lat="47.86571" lon="1.77539">
        <ele>91.974</ele>
        <time>2011-10-30T09:58:00Z</time>
      </trkpt>
      <trkpt lat="47.86603" lon="1.77605">
        <ele>93.257</ele>
        <time>2011-10-30T09:58:14Z</time>
      </trkpt>
      <trkpt lat="47.86605" lon="1.7761">
        <ele>93.542</ele>
        <time>2011-10-30T09:58:15Z</time>
      </trkpt>
      <trkpt lat="47.86633" lon="1.7769">
        <ele>93.384</ele>
        <time>2011-10-30T09:58:31Z</time>
      </trkpt>
      <trkpt lat="47.86639" lon="1.77708">
        <ele>92.902</ele>
        <time>2011-10-30T09:58:36Z</time>
      </trkpt>
      <trkpt lat="47.8667" lon="1.77804">
        <ele>92.498</ele>
        <time>2011-10-30T09:58:52Z</time>
      </trkpt>
      <trkpt lat="47.86687" lon="1.77816">
        <ele>92.162</ele>
        <time>2011-10-30T09:58:55Z</time>
      </trkpt>
      <trkpt lat="47.86725" lon="1.77908">
        <ele>92.341</ele>
        <time>2011-10-30T09:59:10Z</time>
      </trkpt>
      <trkpt lat="47.86733" lon="1.77927">
        <ele>92.659</ele>
        <time>2011-10-30T09:59:13Z</time>
      </trkpt>
      <trkpt lat="47.86759" lon="1.77986">
        <ele>93.705</ele>
        <time>2011-10-30T09:59:23Z</time>
      </trkpt>
      <trkpt lat="47.86777" lon="1.78025">
        <ele>94.096</ele>
        <time>2011-10-30T09:59:32Z</time>
      </trkpt>
      <trkpt lat="47.86797" lon="1.78068">
        <ele>94.35</ele>
        <time>2011-10-30T09:59:41Z</time>
      </trkpt>
      <trkpt lat="47.8682" lon="1.78133">
        <ele>95.174</ele>
        <time>2011-10-30T09:59:51Z</time>
      </trkpt>
      <trkpt lat="47.86851" lon="1.78226">
        <ele>92.42</ele>
        <time>2011-10-30T10:00:06Z</time>
      </trkpt>
      <trkpt lat="47.86856" lon="1.78242">
        <ele>92.213</ele>
        <time>2011-10-30T10:00:09Z</time>
      </trkpt>
      <trkpt lat="47.86857" lon="1.78242">
        <ele>90.59</ele>
        <time>2011-10-30T10:00:15Z</time>
      </trkpt>
      <trkpt lat="47.86851" lon="1.78225">
        <ele>88.724</ele>
        <time>2011-10-30T10:00:19Z</time>
      </trkpt>
      <trkpt lat="47.86849" lon="1.78216">
        <ele>86.85</ele>
        <time>2011-10-30T10:00:21Z</time>
      </trkpt>
      <trkpt lat="47.86829" lon="1.782">
        <ele>85.384</ele>
        <time>2011-10-30T10:00:25Z</time>
      </trkpt>
      <trkpt lat="47.86818" lon="1.78195">
        <ele>83.636</ele>
        <time>2011-10-30T10:00:27Z</time>
      </trkpt>
      <trkpt lat="47.86809" lon="1.78204">
        <ele>83.665</ele>
        <time>2011-10-30T10:00:31Z</time>
      </trkpt>
      <trkpt lat="47.86817" lon="1.78233">
        <ele>84.187</ele>
        <time>2011-10-30T10:00:38Z</time>
      </trkpt>
      <trkpt lat="47.86822" lon="1.78247">
        <ele>83.879</ele>
        <time>2011-10-30T10:00:41Z</time>
      </trkpt>
      <trkpt lat="47.86835" lon="1.7828">
        <ele>83.656</ele>
        <time>2011-10-30T10:00:52Z</time>
      </trkpt>
      <trkpt lat="47.86837" lon="1.78288">
        <ele>84.062</ele>
        <time>2011-10-30T10:00:54Z</time>
      </trkpt>
      <trkpt lat="47.86842" lon="1.78302">
        <ele>83.824</ele>
        <time>2011-10-30T10:00:56Z</time>
      </trkpt>
      <trkpt lat="47.86854" lon="1.78338">
        <ele>84.149</ele>
        <time>2011-10-30T10:01:04Z</time>
      </trkpt>
      <trkpt lat="47.86855" lon="1.78343">
        <ele>84.463</ele>
        <time>2011-10-30T10:01:07Z</time>
      </trkpt>
      <trkpt lat="47.86813" lon="1.78393">
        <ele>84.298</ele>
        <time>2011-10-30T10:01:11Z</time>
      </trkpt>
      <trkpt lat="47.86762" lon="1.7843">
        <ele>84.856</ele>
        <time>2011-10-30T10:01:23Z</time>
      </trkpt>
      <trkpt lat="47.86768" lon="1.78499">
        <ele>85.1</ele>
        <time>2011-10-30T10:01:33Z</time>
      </trkpt>
      <trkpt lat="47.868" lon="1.78622">
        <ele>85.236</ele>
        <time>2011-10-30T10:01:51Z</time>
      </trkpt>
      <trkpt lat="47.86832" lon="1.78752">
        <ele>85.433</ele>
        <time>2011-10-30T10:02:12Z</time>
      </trkpt>
      <trkpt lat="47.86851" lon="1.78826">
        <ele>85.474</ele>
        <time>2011-10-30T10:02:25Z</time>
      </trkpt>
      <trkpt lat="47.86842" lon="1.78837">
        <ele>85.355</ele>
        <time>2011-10-30T10:02:30Z</time>
      </trkpt>
      <trkpt lat="47.86823" lon="1.78852">
        <ele>85.868</ele>
        <time>2011-10-30T10:02:37Z</time>
      </trkpt>
      <trkpt lat="47.86809" lon="1.78862">
        <ele>85.653</ele>
        <time>2011-10-30T10:02:41Z</time>
      </trkpt>
      <trkpt lat="47.86801" lon="1.7886">
        <ele>85.484</ele>
        <time>2011-10-30T10:02:43Z</time>
      </trkpt>
      <trkpt lat="47.8678" lon="1.78863">
        <ele>85.829</ele>
        <time>2011-10-30T10:02:48Z</time>
      </trkpt>
      <trkpt lat="47.86771" lon="1.78865">
        <ele>85.58</ele>
        <time>2011-10-30T10:02:50Z</time>
      </trkpt>
      <trkpt lat="47.86759" lon="1.78867">
        <ele>85.222</ele>
        <time>2011-10-30T10:02:54Z</time>
      </trkpt>
      <trkpt lat="47.86747" lon="1.78867">
        <ele>85.246</ele>
        <time>2011-10-30T10:02:57Z</time>
      </trkpt>
      <trkpt lat="47.86713" lon="1.78886">
        <ele>85.726</ele>
        <time>2011-10-30T10:03:06Z</time>
      </trkpt>
      <trkpt lat="47.867" lon="1.78887">
        <ele>86.627</ele>
        <time>2011-10-30T10:03:10Z</time>
      </trkpt>
      <trkpt lat="47.86678" lon="1.78896">
        <ele>85.967</ele>
        <time>2011-10-30T10:03:15Z</time>
      </trkpt>
      <trkpt lat="47.86654" lon="1.78915">
        <ele>84.932</ele>
        <time>2011-10-30T10:03:24Z</time>
      </trkpt>
      <trkpt lat="47.86649" lon="1.78919">
        <ele>84.449</ele>
        <time>2011-10-30T10:03:30Z</time>
      </trkpt>
      <trkpt lat="47.86642" lon="1.7897">
        <ele>84.463</ele>
        <time>2011-10-30T10:03:39Z</time>
      </trkpt>
      <trkpt lat="47.86642" lon="1.7904">
        <ele>84.062</ele>
        <time>2011-10-30T10:03:48Z</time>
      </trkpt>
      <trkpt lat="47.86663" lon="1.79161">
        <ele>85.577</ele>
        <time>2011-10-30T10:04:02Z</time>
      </trkpt>
      <trkpt lat="47.86664" lon="1.79177">
        <ele>85.692</ele>
        <time>2011-10-30T10:04:04Z</time>
      </trkpt>
      <trkpt lat="47.86679" lon="1.79196">
        <ele>86.236</ele>
        <time>2011-10-30T10:04:09Z</time>
      </trkpt>
      <trkpt lat="47.86709" lon="1.79201">
        <ele>87.192</ele>
        <time>2011-10-30T10:04:21Z</time>
      </trkpt>
      <trkpt lat="47.86711" lon="1.79202">
        <ele>86.968</ele>
        <time>2011-10-30T10:04:30Z</time>
      </trkpt>
      <trkpt lat="47.86701" lon="1.79256">
        <ele>87.1</ele>
        <time>2011-10-30T10:04:44Z</time>
      </trkpt>
      <trkpt lat="47.86695" lon="1.793">
        <ele>87.387</ele>
        <time>2011-10-30T10:04:52Z</time>
      </trkpt>
      <trkpt lat="47.8668" lon="1.79403">
        <ele>87.499</ele>
        <time>2011-10-30T10:05:08Z</time>
      </trkpt>
      <trkpt lat="47.86667" lon="1.79491">
        <ele>87.672</ele>
        <time>2011-10-30T10:05:21Z</time>
      </trkpt>
      <trkpt lat="47.86664" lon="1.79512">
        <ele>87.366</ele>
        <time>2011-10-30T10:05:25Z</time>
      </trkpt>
      <trkpt lat="47.86647" lon="1.79619">
        <ele>87.335</ele>
        <time>2011-10-30T10:05:40Z</time>
      </trkpt>
      <trkpt lat="47.86645" lon="1.79641">
        <ele>87.511</ele>
        <time>2011-10-30T10:05:43Z</time>
      </trkpt>
      <trkpt lat="47.8664" lon="1.79786">
        <ele>86.88</ele>
        <time>2011-10-30T10:06:02Z</time>
      </trkpt>
      <trkpt lat="47.86635" lon="1.79891">
        <ele>86.737</ele>
        <time>2011-10-30T10:06:16Z</time>
      </trkpt>
      <trkpt lat="47.86634" lon="1.79917">
        <ele>87.04</ele>
        <time>2011-10-30T10:06:20Z</time>
      </trkpt>
      <trkpt lat="47.86638" lon="1.80031">
        <ele>87.7</ele>
        <time>2011-10-30T10:06:36Z</time>
      </trkpt>
      <trkpt lat="47.86647" lon="1.80131">
        <ele>88.088</ele>
        <time>2011-10-30T10:06:50Z</time>
      </trkpt>
      <trkpt lat="47.86648" lon="1.80145">
        <ele>88.111</ele>
        <time>2011-10-30T10:06:52Z</time>
      </trkpt>
      <trkpt lat="47.86659" lon="1.80284">
        <ele>88.194</ele>
        <time>2011-10-30T10:07:11Z</time>
      </trkpt>
      <trkpt lat="47.86666" lon="1.80378">
        <ele>88.89</ele>
        <time>2011-10-30T10:07:24Z</time>
      </trkpt>
      <trkpt lat="47.86674" lon="1.80415">
        <ele>88.352</ele>
        <time>2011-10-30T10:07:29Z</time>
      </trkpt>
      <trkpt lat="47.86683" lon="1.80431">
        <ele>89.007</ele>
        <time>2011-10-30T10:07:32Z</time>
      </trkpt>
      <trkpt lat="47.86699" lon="1.80458">
        <ele>88.494</ele>
        <time>2011-10-30T10:07:37Z</time>
      </trkpt>
      <trkpt lat="47.86755" lon="1.80556">
        <ele>89.636</ele>
        <time>2011-10-30T10:07:55Z</time>
      </trkpt>
      <trkpt lat="47.86781" lon="1.80601">
        <ele>89.843</ele>
        <time>2011-10-30T10:08:03Z</time>
      </trkpt>
      <trkpt lat="47.86792" lon="1.8062">
        <ele>89.88</ele>
        <time>2011-10-30T10:08:06Z</time>
      </trkpt>
      <trkpt lat="47.86843" lon="1.80708">
        <ele>89.197</ele>
        <time>2011-10-30T10:08:20Z</time>
      </trkpt>
      <trkpt lat="47.86859" lon="1.80726">
        <ele>89.633</ele>
        <time>2011-10-30T10:08:24Z</time>
      </trkpt>
      <trkpt lat="47.86867" lon="1.80731">
        <ele>89.736</ele>
        <time>2011-10-30T10:08:26Z</time>
      </trkpt>
      <trkpt lat="47.86892" lon="1.8074">
        <ele>89.516</ele>
        <time>2011-10-30T10:08:31Z</time>
      </trkpt>
      <trkpt lat="47.8694" lon="1.808">
        <ele>89.551</ele>
        <time>2011-10-30T10:08:43Z</time>
      </trkpt>
      <trkpt lat="47.86945" lon="1.8084">
        <ele>89.964</ele>
        <time>2011-10-30T10:08:48Z</time>
      </trkpt>
      <trkpt lat="47.86945" lon="1.80865">
        <ele>90.034</ele>
        <time>2011-10-30T10:08:51Z</time>
      </trkpt>
      <trkpt lat="47.86957" lon="1.80911">
        <ele>89.573</ele>
        <time>2011-10-30T10:08:57Z</time>
      </trkpt>
      <trkpt lat="47.87034" lon="1.81046">
        <ele>89.057</ele>
        <time>2011-10-30T10:09:18Z</time>
      </trkpt>
      <trkpt lat="47.87107" lon="1.81174">
        <ele>89.787</ele>
        <time>2011-10-30T10:09:39Z</time>
      </trkpt>
      <trkpt lat="47.87175" lon="1.81297">
        <ele>89.82</ele>
        <time>2011-10-30T10:09:59Z</time>
      </trkpt>
      <trkpt lat="47.87206" lon="1.81359">
        <ele>90.016</ele>
        <time>2011-10-30T10:10:09Z</time>
      </trkpt>
      <trkpt lat="47.87224" lon="1.81399">
        <ele>89.871</ele>
        <time>2011-10-30T10:10:15Z</time>
      </trkpt>
      <trkpt lat="47.87265" lon="1.81518">
        <ele>89.744</ele>
        <time>2011-10-30T10:10:33Z</time>
      </trkpt>
      <trkpt lat="47.8728" lon="1.81585">
        <ele>89.477</ele>
        <time>2011-10-30T10:10:43Z</time>
      </trkpt>
      <trkpt lat="47.87286" lon="1.81611">
        <ele>89.952</ele>
        <time>2011-10-30T10:10:47Z</time>
      </trkpt>
      <trkpt lat="47.87298" lon="1.8165">
        <ele>89.872</ele>
        <time>2011-10-30T10:10:53Z</time>
      </trkpt>
      <trkpt lat="47.87322" lon="1.8172">
        <ele>89.725</ele>
        <time>2011-10-30T10:11:05Z</time>
      </trkpt>
      <trkpt lat="47.87343" lon="1.8177">
        <ele>89.821</ele>
        <time>2011-10-30T10:11:14Z</time>
      </trkpt>
      <trkpt lat="47.87375" lon="1.81866">
        <ele>90.538</ele>
        <time>2011-10-30T10:11:28Z</time>
      </trkpt>
      <trkpt lat="47.87407" lon="1.82011">
        <ele>89.728</ele>
        <time>2011-10-30T10:11:48Z</time>
      </trkpt>
      <trkpt lat="47.8742" lon="1.82051">
        <ele>89.686</ele>
        <time>2011-10-30T10:11:54Z</time>
      </trkpt>
      <trkpt lat="47.87438" lon="1.82088">
        <ele>89.683</ele>
        <time>2011-10-30T10:12:00Z</time>
      </trkpt>
      <trkpt lat="47.87451" lon="1.82107">
        <ele>90.016</ele>
        <time>2011-10-30T10:12:04Z</time>
      </trkpt>
      <trkpt lat="47.87511" lon="1.82204">
        <ele>90.041</ele>
        <time>2011-10-30T10:12:22Z</time>
      </trkpt>
      <trkpt lat="47.87545" lon="1.82237">
        <ele>90.058</ele>
        <time>2011-10-30T10:12:30Z</time>
      </trkpt>
      <trkpt lat="47.87594" lon="1.82278">
        <ele>90.157</ele>
        <time>2011-10-30T10:12:40Z</time>
      </trkpt>
      <trkpt lat="47.87635" lon="1.82327">
        <ele>89.91</ele>
        <time>2011-10-30T10:12:50Z</time>
      </trkpt>
      <trkpt lat="47.87653" lon="1.82349">
        <ele>89.559</ele>
        <time>2011-10-30T10:13:01Z</time>
      </trkpt>
      <trkpt lat="47.87653" lon="1.82349">
        <ele>89.603</ele>
        <time>2011-10-30T10:15:26Z</time>
      </trkpt>
      <trkpt lat="47.87665" lon="1.82336">
        <ele>89.424</ele>
        <time>2011-10-30T10:15:32Z</time>
      </trkpt>
      <trkpt lat="47.87721" lon="1.82297">
        <ele>88.539</ele>
        <time>2011-10-30T10:15:44Z</time>
      </trkpt>
      <trkpt lat="47.87743" lon="1.82281">
        <ele>88.181</ele>
        <time>2011-10-30T10:15:49Z</time>
      </trkpt>
      <trkpt lat="47.87746" lon="1.82241">
        <ele>88.213</ele>
        <time>2011-10-30T10:15:56Z</time>
      </trkpt>
      <trkpt lat="47.87727" lon="1.82162">
        <ele>87.701</ele>
        <time>2011-10-30T10:16:06Z</time>
      </trkpt>
      <trkpt lat="47.87688" lon="1.82002">
        <ele>87.733</ele>
        <time>2011-10-30T10:16:28Z</time>
      </trkpt>
      <trkpt lat="47.87657" lon="1.81881">
        <ele>87.484</ele>
        <time>2011-10-30T10:16:49Z</time>
      </trkpt>
      <trkpt lat="47.87655" lon="1.8188">
        <ele>87.255</ele>
        <time>2011-10-30T10:16:50Z</time>
      </trkpt>
      <trkpt lat="47.87604" lon="1.81893">
        <ele>87.431</ele>
        <time>2011-10-30T10:17:03Z</time>
      </trkpt>
      <trkpt lat="47.87563" lon="1.81905">
        <ele>87.328</ele>
        <time>2011-10-30T10:17:12Z</time>
      </trkpt>
      <trkpt lat="47.87556" lon="1.81895">
        <ele>87.619</ele>
        <time>2011-10-30T10:17:16Z</time>
      </trkpt>
      <trkpt lat="47.87547" lon="1.81834">
        <ele>87.32</ele>
        <time>2011-10-30T10:17:29Z</time>
      </trkpt>
      <trkpt lat="47.87535" lon="1.81754">
        <ele>87.374</ele>
        <time>2011-10-30T10:17:42Z</time>
      </trkpt>
      <trkpt lat="47.87511" lon="1.8169">
        <ele>87.288</ele>
        <time>2011-10-30T10:17:51Z</time>
      </trkpt>
      <trkpt lat="47.87482" lon="1.81644">
        <ele>88.269</ele>
        <time>2011-10-30T10:18:02Z</time>
      </trkpt>
      <trkpt lat="47.87461" lon="1.81579">
        <ele>88.125</ele>
        <time>2011-10-30T10:18:12Z</time>
      </trkpt>
      <trkpt lat="47.87443" lon="1.81515">
        <ele>88.424</ele>
        <time>2011-10-30T10:18:22Z</time>
      </trkpt>
      <trkpt lat="47.87421" lon="1.8145">
        <ele>87.983</ele>
        <time>2011-10-30T10:18:31Z</time>
      </trkpt>
      <trkpt lat="47.87429" lon="1.81439">
        <ele>87.527</ele>
        <time>2011-10-30T10:18:35Z</time>
      </trkpt>
      <trkpt lat="47.87449" lon="1.81433">
        <ele>88.212</ele>
        <time>2011-10-30T10:18:41Z</time>
      </trkpt>
      <trkpt lat="47.87476" lon="1.8143">
        <ele>87.839</ele>
        <time>2011-10-30T10:18:46Z</time>
      </trkpt>
      <trkpt lat="47.87509" lon="1.81418">
        <ele>87.848</ele>
        <time>2011-10-30T10:18:54Z</time>
      </trkpt>
      <trkpt lat="47.87604" lon="1.81388">
        <ele>87.442</ele>
        <time>2011-10-30T10:19:10Z</time>
      </trkpt>
      <trkpt lat="47.87623" lon="1.8136">
        <ele>87.914</ele>
        <time>2011-10-30T10:19:16Z</time>
      </trkpt>
      <trkpt lat="47.8762" lon="1.8135">
        <ele>88.171</ele>
        <time>2011-10-30T10:19:18Z</time>
      </trkpt>
      <trkpt lat="47.8761" lon="1.81317">
        <ele>87.845</ele>
        <time>2011-10-30T10:19:23Z</time>
      </trkpt>
      <trkpt lat="47.87588" lon="1.81241">
        <ele>88.093</ele>
        <time>2011-10-30T10:19:34Z</time>
      </trkpt>
      <trkpt lat="47.87555" lon="1.81127">
        <ele>88.195</ele>
        <time>2011-10-30T10:19:49Z</time>
      </trkpt>
      <trkpt lat="47.87522" lon="1.81016">
        <ele>87.786</ele>
        <time>2011-10-30T10:20:03Z</time>
      </trkpt>
      <trkpt lat="47.87518" lon="1.80965">
        <ele>87.686</ele>
        <time>2011-10-30T10:20:09Z</time>
      </trkpt>
      <trkpt lat="47.87541" lon="1.80838">
        <ele>90.405</ele>
        <time>2011-10-30T10:20:25Z</time>
      </trkpt>
      <trkpt lat="47.87552" lon="1.80779">
        <ele>93.421</ele>
        <time>2011-10-30T10:20:35Z</time>
      </trkpt>
      <trkpt lat="47.87563" lon="1.80706">
        <ele>96.503</ele>
        <time>2011-10-30T10:20:47Z</time>
      </trkpt>
      <trkpt lat="47.87577" lon="1.80649">
        <ele>98.237</ele>
        <time>2011-10-30T10:20:57Z</time>
      </trkpt>
      <trkpt lat="47.87589" lon="1.80631">
        <ele>98.593</ele>
        <time>2011-10-30T10:21:01Z</time>
      </trkpt>
      <trkpt lat="47.87685" lon="1.80578">
        <ele>99.863</ele>
        <time>2011-10-30T10:21:24Z</time>
      </trkpt>
      <trkpt lat="47.87764" lon="1.80545">
        <ele>101.238</ele>
        <time>2011-10-30T10:21:44Z</time>
      </trkpt>
      <trkpt lat="47.87771" lon="1.80543">
        <ele>101.639</ele>
        <time>2011-10-30T10:21:48Z</time>
      </trkpt>
      <trkpt lat="47.87805" lon="1.80544">
        <ele>102.32</ele>
        <time>2011-10-30T10:21:57Z</time>
      </trkpt>
      <trkpt lat="47.87805" lon="1.80532">
        <ele>102.238</ele>
        <time>2011-10-30T10:21:59Z</time>
      </trkpt>
      <trkpt lat="47.87874" lon="1.80468">
        <ele>100.914</ele>
        <time>2011-10-30T10:22:14Z</time>
      </trkpt>
      <trkpt lat="47.88005" lon="1.80367">
        <ele>102.833</ele>
        <time>2011-10-30T10:22:44Z</time>
      </trkpt>
      <trkpt lat="47.88121" lon="1.80279">
        <ele>103.534</ele>
        <time>2011-10-30T10:23:12Z</time>
      </trkpt>
      <trkpt lat="47.88133" lon="1.8027">
        <ele>103.152</ele>
        <time>2011-10-30T10:23:15Z</time>
      </trkpt>
      <trkpt lat="47.88171" lon="1.80273">
        <ele>102.668</ele>
        <time>2011-10-30T10:23:23Z</time>
      </trkpt>
      <trkpt lat="47.88177" lon="1.80277">
        <ele>102.469</ele>
        <time>2011-10-30T10:23:25Z</time>
      </trkpt>
      <trkpt lat="47.8821" lon="1.80261">
        <ele>102.194</ele>
        <time>2011-10-30T10:23:33Z</time>
      </trkpt>
      <trkpt lat="47.88215" lon="1.80245">
        <ele>101.931</ele>
        <time>2011-10-30T10:23:36Z</time>
      </trkpt>
      <trkpt lat="47.88246" lon="1.80225">
        <ele>102.092</ele>
        <time>2011-10-30T10:23:44Z</time>
      </trkpt>
      <trkpt lat="47.88271" lon="1.80226">
        <ele>101.341</ele>
        <time>2011-10-30T10:23:50Z</time>
      </trkpt>
      <trkpt lat="47.88292" lon="1.80194">
        <ele>100.911</ele>
        <time>2011-10-30T10:23:59Z</time>
      </trkpt>
      <trkpt lat="47.88306" lon="1.80175">
        <ele>100.385</ele>
        <time>2011-10-30T10:24:03Z</time>
      </trkpt>
      <trkpt lat="47.88377" lon="1.80127">
        <ele>99.157</ele>
        <time>2011-10-30T10:24:19Z</time>
      </trkpt>
      <trkpt lat="47.8839" lon="1.80116">
        <ele>99.132</ele>
        <time>2011-10-30T10:24:22Z</time>
      </trkpt>
      <trkpt lat="47.88406" lon="1.80134">
        <ele>99.024</ele>
        <time>2011-10-30T10:24:26Z</time>
      </trkpt>
      <trkpt lat="47.88427" lon="1.80213">
        <ele>99.762</ele>
        <time>2011-10-30T10:24:38Z</time>
      </trkpt>
      <trkpt lat="47.88443" lon="1.80255">
        <ele>101.976</ele>
        <time>2011-10-30T10:24:47Z</time>
      </trkpt>
      <trkpt lat="47.88465" lon="1.80281">
        <ele>101.635</ele>
        <time>2011-10-30T10:24:53Z</time>
      </trkpt>
      <trkpt lat="47.88472" lon="1.8029">
        <ele>101.262</ele>
        <time>2011-10-30T10:24:55Z</time>
      </trkpt>
      <trkpt lat="47.8856" lon="1.80332">
        <ele>99.814</ele>
        <time>2011-10-30T10:25:12Z</time>
      </trkpt>
      <trkpt lat="47.88564" lon="1.80332">
        <ele>99.561</ele>
        <time>2011-10-30T10:25:13Z</time>
      </trkpt>
      <trkpt lat="47.88582" lon="1.80332">
        <ele>99.17</ele>
        <time>2011-10-30T10:25:17Z</time>
      </trkpt>
      <trkpt lat="47.88617" lon="1.80332">
        <ele>96.906</ele>
        <time>2011-10-30T10:25:25Z</time>
      </trkpt>
      <trkpt lat="47.88646" lon="1.80336">
        <ele>96.678</ele>
        <time>2011-10-30T10:25:30Z</time>
      </trkpt>
      <trkpt lat="47.88666" lon="1.80345">
        <ele>96.472</ele>
        <time>2011-10-30T10:25:35Z</time>
      </trkpt>
      <trkpt lat="47.88684" lon="1.80353">
        <ele>97.159</ele>
        <time>2011-10-30T10:25:39Z</time>
      </trkpt>
      <trkpt lat="47.88709" lon="1.8036">
        <ele>100.331</ele>
        <time>2011-10-30T10:25:46Z</time>
      </trkpt>
      <trkpt lat="47.88711" lon="1.80361">
        <ele>100.333</ele>
        <time>2011-10-30T10:25:47Z</time>
      </trkpt>
      <trkpt lat="47.88743" lon="1.80372">
        <ele>101.062</ele>
        <time>2011-10-30T10:25:55Z</time>
      </trkpt>
      <trkpt lat="47.88797" lon="1.80402">
        <ele>100.914</ele>
        <time>2011-10-30T10:26:10Z</time>
      </trkpt>
      <trkpt lat="47.88831" lon="1.80373">
        <ele>100.758</ele>
        <time>2011-10-30T10:26:19Z</time>
      </trkpt>
      <trkpt lat="47.88894" lon="1.80319">
        <ele>101.707</ele>
        <time>2011-10-30T10:26:37Z</time>
      </trkpt>
      <trkpt lat="47.88903" lon="1.80338">
        <ele>102.032</ele>
        <time>2011-10-30T10:26:42Z</time>
      </trkpt>
      <trkpt lat="47.88949" lon="1.80472">
        <ele>100.782</ele>
        <time>2011-10-30T10:27:03Z</time>
      </trkpt>
      <trkpt lat="47.88977" lon="1.80555">
        <ele>101.396</ele>
        <time>2011-10-30T10:27:16Z</time>
      </trkpt>
      <trkpt lat="47.89013" lon="1.80534">
        <ele>102.459</ele>
        <time>2011-10-30T10:27:26Z</time>
      </trkpt>
      <trkpt lat="47.89087" lon="1.80471">
        <ele>103.785</ele>
        <time>2011-10-30T10:27:48Z</time>
      </trkpt>
      <trkpt lat="47.89136" lon="1.80433">
        <ele>104.678</ele>
        <time>2011-10-30T10:28:05Z</time>
      </trkpt>
      <trkpt lat="47.89144" lon="1.80445">
        <ele>104.517</ele>
        <time>2011-10-30T10:28:09Z</time>
      </trkpt>
      <trkpt lat="47.89184" lon="1.80543">
        <ele>104.463</ele>
        <time>2011-10-30T10:28:30Z</time>
      </trkpt>
      <trkpt lat="47.89233" lon="1.80659">
        <ele>104.81</ele>
        <time>2011-10-30T10:28:56Z</time>
      </trkpt>
      <trkpt lat="47.89274" lon="1.8076">
        <ele>105.319</ele>
        <time>2011-10-30T10:29:18Z</time>
      </trkpt>
      <trkpt lat="47.89312" lon="1.80851">
        <ele>105.907</ele>
        <time>2011-10-30T10:29:39Z</time>
      </trkpt>
      <trkpt lat="47.89362" lon="1.80967">
        <ele>107.724</ele>
        <time>2011-10-30T10:30:04Z</time>
      </trkpt>
      <trkpt lat="47.89409" lon="1.81078">
        <ele>107.913</ele>
        <time>2011-10-30T10:30:25Z</time>
      </trkpt>
      <trkpt lat="47.89424" lon="1.81067">
        <ele>107.86</ele>
        <time>2011-10-30T10:30:29Z</time>
      </trkpt>
      <trkpt lat="47.89509" lon="1.8097">
        <ele>109.44</ele>
        <time>2011-10-30T10:30:56Z</time>
      </trkpt>
      <trkpt lat="47.89516" lon="1.80961">
        <ele>109.358</ele>
        <time>2011-10-30T10:31:08Z</time>
      </trkpt>
      <trkpt lat="47.89571" lon="1.80905">
        <ele>108.805</ele>
        <time>2011-10-30T10:31:24Z</time>
      </trkpt>
      <trkpt lat="47.89575" lon="1.80901">
        <ele>108.834</ele>
        <time>2011-10-30T10:31:25Z</time>
      </trkpt>
      <trkpt lat="47.89599" lon="1.80885">
        <ele>107.788</ele>
        <time>2011-10-30T10:31:30Z</time>
      </trkpt>
      <trkpt lat="47.89686" lon="1.80896">
        <ele>105.495</ele>
        <time>2011-10-30T10:31:43Z</time>
      </trkpt>
      <trkpt lat="47.89819" lon="1.80912">
        <ele>103.405</ele>
        <time>2011-10-30T10:32:03Z</time>
      </trkpt>
      <trkpt lat="47.89902" lon="1.80917">
        <ele>106.668</ele>
        <time>2011-10-30T10:32:18Z</time>
      </trkpt>
      <trkpt lat="47.90046" lon="1.80918">
        <ele>108.916</ele>
        <time>2011-10-30T10:32:45Z</time>
      </trkpt>
      <trkpt lat="47.90166" lon="1.8093">
        <ele>105.825</ele>
        <time>2011-10-30T10:33:05Z</time>
      </trkpt>
      <trkpt lat="47.90179" lon="1.80931">
        <ele>105.885</ele>
        <time>2011-10-30T10:33:07Z</time>
      </trkpt>
      <trkpt lat="47.90219" lon="1.80889">
        <ele>106.074</ele>
        <time>2011-10-30T10:33:16Z</time>
      </trkpt>
      <trkpt lat="47.90221" lon="1.80881">
        <ele>106.071</ele>
        <time>2011-10-30T10:33:17Z</time>
      </trkpt>
      <trkpt lat="47.90232" lon="1.80842">
        <ele>106.247</ele>
        <time>2011-10-30T10:33:22Z</time>
      </trkpt>
      <trkpt lat="47.90248" lon="1.80825">
        <ele>106.268</ele>
        <time>2011-10-30T10:33:26Z</time>
      </trkpt>
      <trkpt lat="47.90313" lon="1.80785">
        <ele>107.06</ele>
        <time>2011-10-30T10:33:39Z</time>
      </trkpt>
      <trkpt lat="47.90441" lon="1.80699">
        <ele>106.501</ele>
        <time>2011-10-30T10:34:04Z</time>
      </trkpt>
      <trkpt lat="47.90538" lon="1.80634">
        <ele>105.724</ele>
        <time>2011-10-30T10:34:24Z</time>
      </trkpt>
      <trkpt lat="47.9054" lon="1.8061">
        <ele>105.985</ele>
        <time>2011-10-30T10:34:30Z</time>
      </trkpt>
      <trkpt lat="47.90491" lon="1.80511">
        <ele>106.525</ele>
        <time>2011-10-30T10:34:47Z</time>
      </trkpt>
      <trkpt lat="47.90426" lon="1.80372">
        <ele>106.476</ele>
        <time>2011-10-30T10:35:11Z</time>
      </trkpt>
      <trkpt lat="47.90413" lon="1.80349">
        <ele>106.62</ele>
        <time>2011-10-30T10:35:17Z</time>
      </trkpt>
      <trkpt lat="47.90419" lon="1.80336">
        <ele>106.737</ele>
        <time>2011-10-30T10:35:22Z</time>
      </trkpt>
      <trkpt lat="47.90426" lon="1.80338">
        <ele>106.627</ele>
        <time>2011-10-30T10:35:24Z</time>
      </trkpt>
      <trkpt lat="47.90544" lon="1.80355">
        <ele>107.063</ele>
        <time>2011-10-30T10:35:47Z</time>
      </trkpt>
      <trkpt lat="47.90665" lon="1.80379">
        <ele>106.591</ele>
        <time>2011-10-30T10:36:09Z</time>
      </trkpt>
      <trkpt lat="47.90763" lon="1.80384">
        <ele>105.446</ele>
        <time>2011-10-30T10:36:26Z</time>
      </trkpt>
      <trkpt lat="47.90774" lon="1.80364">
        <ele>105.517</ele>
        <time>2011-10-30T10:36:30Z</time>
      </trkpt>
      <trkpt lat="47.90813" lon="1.80249">
        <ele>106.521</ele>
        <time>2011-10-30T10:36:47Z</time>
      </trkpt>
      <trkpt lat="47.90859" lon="1.80143">
        <ele>105.354</ele>
        <time>2011-10-30T10:37:03Z</time>
      </trkpt>
      <trkpt lat="47.90883" lon="1.80047">
        <ele>105.745</ele>
        <time>2011-10-30T10:37:16Z</time>
      </trkpt>
      <trkpt lat="47.90929" lon="1.79876">
        <ele>107.314</ele>
        <time>2011-10-30T10:37:41Z</time>
      </trkpt>
      <trkpt lat="47.90959" lon="1.79769">
        <ele>108.568</ele>
        <time>2011-10-30T10:37:58Z</time>
      </trkpt>
      <trkpt lat="47.90962" lon="1.79757">
        <ele>108.773</ele>
        <time>2011-10-30T10:38:02Z</time>
      </trkpt>
      <trkpt lat="47.90967" lon="1.79691">
        <ele>109.193</ele>
        <time>2011-10-30T10:38:10Z</time>
      </trkpt>
      <trkpt lat="47.91005" lon="1.79594">
        <ele>110.859</ele>
        <time>2011-10-30T10:38:27Z</time>
      </trkpt>
      <trkpt lat="47.91049" lon="1.79493">
        <ele>113.103</ele>
        <time>2011-10-30T10:38:48Z</time>
      </trkpt>
      <trkpt lat="47.91096" lon="1.79382">
        <ele>116.157</ele>
        <time>2011-10-30T10:39:10Z</time>
      </trkpt>
      <trkpt lat="47.91145" lon="1.79274">
        <ele>117.314</ele>
        <time>2011-10-30T10:39:31Z</time>
      </trkpt>
      <trkpt lat="47.91194" lon="1.79155">
        <ele>117.637</ele>
        <time>2011-10-30T10:39:51Z</time>
      </trkpt>
      <trkpt lat="47.91227" lon="1.79083">
        <ele>115.222</ele>
        <time>2011-10-30T10:40:01Z</time>
      </trkpt>
      <trkpt lat="47.91241" lon="1.79052">
        <ele>113.931</ele>
        <time>2011-10-30T10:40:05Z</time>
      </trkpt>
      <trkpt lat="47.91249" lon="1.79032">
        <ele>113.058</ele>
        <time>2011-10-30T10:40:08Z</time>
      </trkpt>
      <trkpt lat="47.91282" lon="1.78955">
        <ele>110.342</ele>
        <time>2011-10-30T10:40:19Z</time>
      </trkpt>
      <trkpt lat="47.91337" lon="1.78841">
        <ele>108.546</ele>
        <time>2011-10-30T10:40:31Z</time>
      </trkpt>
      <trkpt lat="47.91386" lon="1.78731">
        <ele>106.963</ele>
        <time>2011-10-30T10:40:46Z</time>
      </trkpt>
      <trkpt lat="47.91395" lon="1.78711">
        <ele>106.8</ele>
        <time>2011-10-30T10:40:54Z</time>
      </trkpt>
      <trkpt lat="47.91415" lon="1.7867">
        <ele>107.291</ele>
        <time>2011-10-30T10:41:11Z</time>
      </trkpt>
      <trkpt lat="47.9142" lon="1.78662">
        <ele>106.662</ele>
        <time>2011-10-30T10:41:23Z</time>
      </trkpt>
      <trkpt lat="47.9142" lon="1.78662">
        <ele>107.427</ele>
        <time>2011-10-30T10:46:10Z</time>
      </trkpt>
      <trkpt lat="47.91455" lon="1.78679">
        <ele>107.98</ele>
        <time>2011-10-30T10:46:21Z</time>
      </trkpt>
      <trkpt lat="47.9156" lon="1.78737">
        <ele>108.462</ele>
        <time>2011-10-30T10:46:43Z</time>
      </trkpt>
      <trkpt lat="47.91564" lon="1.78739">
        <ele>108.461</ele>
        <time>2011-10-30T10:46:44Z</time>
      </trkpt>
      <trkpt lat="47.91578" lon="1.78726">
        <ele>108.889</ele>
        <time>2011-10-30T10:46:48Z</time>
      </trkpt>
      <trkpt lat="47.91683" lon="1.78603">
        <ele>109.051</ele>
        <time>2011-10-30T10:47:09Z</time>
      </trkpt>
      <trkpt lat="47.91788" lon="1.78471">
        <ele>109.358</ele>
        <time>2011-10-30T10:47:31Z</time>
      </trkpt>
      <trkpt lat="47.9184" lon="1.7839">
        <ele>108.943</ele>
        <time>2011-10-30T10:47:42Z</time>
      </trkpt>
      <trkpt lat="47.91875" lon="1.78333">
        <ele>108.475</ele>
        <time>2011-10-30T10:47:50Z</time>
      </trkpt>
      <trkpt lat="47.9189" lon="1.78312">
        <ele>108.297</ele>
        <time>2011-10-30T10:47:53Z</time>
      </trkpt>
      <trkpt lat="47.91974" lon="1.78225">
        <ele>109.274</ele>
        <time>2011-10-30T10:48:10Z</time>
      </trkpt>
      <trkpt lat="47.92032" lon="1.78163">
        <ele>109.576</ele>
        <time>2011-10-30T10:48:22Z</time>
      </trkpt>
      <trkpt lat="47.92165" lon="1.78027">
        <ele>108.855</ele>
        <time>2011-10-30T10:48:48Z</time>
      </trkpt>
      <trkpt lat="47.92276" lon="1.77914">
        <ele>106.647</ele>
        <time>2011-10-30T10:49:08Z</time>
      </trkpt>
      <trkpt lat="47.92329" lon="1.7786">
        <ele>106.677</ele>
        <time>2011-10-30T10:49:19Z</time>
      </trkpt>
      <trkpt lat="47.92439" lon="1.7775">
        <ele>105.821</ele>
        <time>2011-10-30T10:49:39Z</time>
      </trkpt>
      <trkpt lat="47.92565" lon="1.77623">
        <ele>105.641</ele>
        <time>2011-10-30T10:50:02Z</time>
      </trkpt>
      <trkpt lat="47.9263" lon="1.77558">
        <ele>108.103</ele>
        <time>2011-10-30T10:50:16Z</time>
      </trkpt>
      <trkpt lat="47.92654" lon="1.77555">
        <ele>108.697</ele>
        <time>2011-10-30T10:50:21Z</time>
      </trkpt>
      <trkpt lat="47.92674" lon="1.77591">
        <ele>108.545</ele>
        <time>2011-10-30T10:50:27Z</time>
      </trkpt>
      <trkpt lat="47.92713" lon="1.77663">
        <ele>109.447</ele>
        <time>2011-10-30T10:50:40Z</time>
      </trkpt>
      <trkpt lat="47.92743" lon="1.77719">
        <ele>111.143</ele>
        <time>2011-10-30T10:50:49Z</time>
      </trkpt>
      <trkpt lat="47.9279" lon="1.77816">
        <ele>108.796</ele>
        <time>2011-10-30T10:51:02Z</time>
      </trkpt>
      <trkpt lat="47.92868" lon="1.77963">
        <ele>106.385</ele>
        <time>2011-10-30T10:51:19Z</time>
      </trkpt>
      <trkpt lat="47.92906" lon="1.78038">
        <ele>105.701</ele>
        <time>2011-10-30T10:51:29Z</time>
      </trkpt>
      <trkpt lat="47.92927" lon="1.78079">
        <ele>106.107</ele>
        <time>2011-10-30T10:51:36Z</time>
      </trkpt>
      <trkpt lat="47.92971" lon="1.78165">
        <ele>105.705</ele>
        <time>2011-10-30T10:51:49Z</time>
      </trkpt>
      <trkpt lat="47.93014" lon="1.78252">
        <ele>106.746</ele>
        <time>2011-10-30T10:52:02Z</time>
      </trkpt>
      <trkpt lat="47.9302" lon="1.78265">
        <ele>106.813</ele>
        <time>2011-10-30T10:52:04Z</time>
      </trkpt>
      <trkpt lat="47.93037" lon="1.78298">
        <ele>107.839</ele>
        <time>2011-10-30T10:52:12Z</time>
      </trkpt>
      <trkpt lat="47.93077" lon="1.78378">
        <ele>108.017</ele>
        <time>2011-10-30T10:52:23Z</time>
      </trkpt>
      <trkpt lat="47.9308" lon="1.78385">
        <ele>107.7</ele>
        <time>2011-10-30T10:52:24Z</time>
      </trkpt>
      <trkpt lat="47.93106" lon="1.78437">
        <ele>106.201</ele>
        <time>2011-10-30T10:52:33Z</time>
      </trkpt>
      <trkpt lat="47.93129" lon="1.78483">
        <ele>106.721</ele>
        <time>2011-10-30T10:52:42Z</time>
      </trkpt>
      <trkpt lat="47.93159" lon="1.7854">
        <ele>108.59</ele>
        <time>2011-10-30T10:52:53Z</time>
      </trkpt>
      <trkpt lat="47.93186" lon="1.78593">
        <ele>108.927</ele>
        <time>2011-10-30T10:53:02Z</time>
      </trkpt>
      <trkpt lat="47.93213" lon="1.78645">
        <ele>109.233</ele>
        <time>2011-10-30T10:53:10Z</time>
      </trkpt>
      <trkpt lat="47.93218" lon="1.78654">
        <ele>109.833</ele>
        <time>2011-10-30T10:53:15Z</time>
      </trkpt>
      <trkpt lat="47.93244" lon="1.78639">
        <ele>110.263</ele>
        <time>2011-10-30T10:53:25Z</time>
      </trkpt>
      <trkpt lat="47.93262" lon="1.78625">
        <ele>110.148</ele>
        <time>2011-10-30T10:53:29Z</time>
      </trkpt>
      <trkpt lat="47.93331" lon="1.78574">
        <ele>108.634</ele>
        <time>2011-10-30T10:53:43Z</time>
      </trkpt>
      <trkpt lat="47.93351" lon="1.7856">
        <ele>109.14</ele>
        <time>2011-10-30T10:53:47Z</time>
      </trkpt>
      <trkpt lat="47.93395" lon="1.78526">
        <ele>110.302</ele>
        <time>2011-10-30T10:53:59Z</time>
      </trkpt>
      <trkpt lat="47.93434" lon="1.78496">
        <ele>111.421</ele>
        <time>2011-10-30T10:54:08Z</time>
      </trkpt>
      <trkpt lat="47.93471" lon="1.78439">
        <ele>112.173</ele>
        <time>2011-10-30T10:54:19Z</time>
      </trkpt>
      <trkpt lat="47.9349" lon="1.78404">
        <ele>111.301</ele>
        <time>2011-10-30T10:54:26Z</time>
      </trkpt>
      <trkpt lat="47.93504" lon="1.78379">
        <ele>110.851</ele>
        <time>2011-10-30T10:54:30Z</time>
      </trkpt>
      <trkpt lat="47.93535" lon="1.78322">
        <ele>110.14</ele>
        <time>2011-10-30T10:54:40Z</time>
      </trkpt>
      <trkpt lat="47.93537" lon="1.78319">
        <ele>110.139</ele>
        <time>2011-10-30T10:54:41Z</time>
      </trkpt>
      <trkpt lat="47.93546" lon="1.78325">
        <ele>110.345</ele>
        <time>2011-10-30T10:54:45Z</time>
      </trkpt>
      <trkpt lat="47.93556" lon="1.78437">
        <ele>109.68</ele>
        <time>2011-10-30T10:55:01Z</time>
      </trkpt>
      <trkpt lat="47.93574" lon="1.78652">
        <ele>109.366</ele>
        <time>2011-10-30T10:55:29Z</time>
      </trkpt>
      <trkpt lat="47.93575" lon="1.78674">
        <ele>109.069</ele>
        <time>2011-10-30T10:55:32Z</time>
      </trkpt>
      <trkpt lat="47.93579" lon="1.78696">
        <ele>109.526</ele>
        <time>2011-10-30T10:55:36Z</time>
      </trkpt>
      <trkpt lat="47.93584" lon="1.78726">
        <ele>109.666</ele>
        <time>2011-10-30T10:55:41Z</time>
      </trkpt>
      <trkpt lat="47.93589" lon="1.7884">
        <ele>113.18</ele>
        <time>2011-10-30T10:56:01Z</time>
      </trkpt>
      <trkpt lat="47.93597" lon="1.78997">
        <ele>111.381</ele>
        <time>2011-10-30T10:56:23Z</time>
      </trkpt>
      <trkpt lat="47.93612" lon="1.79173">
        <ele>112.401</ele>
        <time>2011-10-30T10:56:47Z</time>
      </trkpt>
      <trkpt lat="47.93628" lon="1.79408">
        <ele>113.5</ele>
        <time>2011-10-30T10:57:19Z</time>
      </trkpt>
      <trkpt lat="47.93661" lon="1.79538">
        <ele>113.462</ele>
        <time>2011-10-30T10:57:35Z</time>
      </trkpt>
      <trkpt lat="47.93732" lon="1.79646">
        <ele>113.316</ele>
        <time>2011-10-30T10:57:53Z</time>
      </trkpt>
      <trkpt lat="47.93816" lon="1.79762">
        <ele>113.317</ele>
        <time>2011-10-30T10:58:14Z</time>
      </trkpt>
      <trkpt lat="47.93888" lon="1.79866">
        <ele>112.804</ele>
        <time>2011-10-30T10:58:32Z</time>
      </trkpt>
      <trkpt lat="47.93906" lon="1.79901">
        <ele>112.537</ele>
        <time>2011-10-30T10:58:37Z</time>
      </trkpt>
      <trkpt lat="47.93899" lon="1.79969">
        <ele>112.039</ele>
        <time>2011-10-30T10:58:45Z</time>
      </trkpt>
      <trkpt lat="47.93813" lon="1.8013">
        <ele>110.593</ele>
        <time>2011-10-30T10:59:09Z</time>
      </trkpt>
      <trkpt lat="47.9375" lon="1.80254">
        <ele>112.1</ele>
        <time>2011-10-30T10:59:30Z</time>
      </trkpt>
      <trkpt lat="47.93765" lon="1.803">
        <ele>112.043</ele>
        <time>2011-10-30T10:59:39Z</time>
      </trkpt>
      <trkpt lat="47.93845" lon="1.80486">
        <ele>112.473</ele>
        <time>2011-10-30T11:00:08Z</time>
      </trkpt>
      <trkpt lat="47.93936" lon="1.80707">
        <ele>112.143</ele>
        <time>2011-10-30T11:00:41Z</time>
      </trkpt>
      <trkpt lat="47.93977" lon="1.80847">
        <ele>111.446</ele>
        <time>2011-10-30T11:00:59Z</time>
      </trkpt>
      <trkpt lat="47.93978" lon="1.80853">
        <ele>111.738</ele>
        <time>2011-10-30T11:01:00Z</time>
      </trkpt>
      <trkpt lat="47.93972" lon="1.80879">
        <ele>112.256</ele>
        <time>2011-10-30T11:01:05Z</time>
      </trkpt>
      <trkpt lat="47.93905" lon="1.80991">
        <ele>113.67</ele>
        <time>2011-10-30T11:01:26Z</time>
      </trkpt>
      <trkpt lat="47.93901" lon="1.81">
        <ele>114.544</ele>
        <time>2011-10-30T11:01:28Z</time>
      </trkpt>
      <trkpt lat="47.93905" lon="1.81024">
        <ele>114.045</ele>
        <time>2011-10-30T11:01:32Z</time>
      </trkpt>
      <trkpt lat="47.93971" lon="1.81187">
        <ele>112.215</ele>
        <time>2011-10-30T11:01:57Z</time>
      </trkpt>
      <trkpt lat="47.94018" lon="1.81303">
        <ele>112.144</ele>
        <time>2011-10-30T11:02:15Z</time>
      </trkpt>
      <trkpt lat="47.94022" lon="1.8132">
        <ele>112.016</ele>
        <time>2011-10-30T11:02:19Z</time>
      </trkpt>
      <trkpt lat="47.94049" lon="1.81377">
        <ele>112.599</ele>
        <time>2011-10-30T11:02:28Z</time>
      </trkpt>
      <trkpt lat="47.94064" lon="1.81369">
        <ele>112.358</ele>
        <time>2011-10-30T11:02:33Z</time>
      </trkpt>
      <trkpt lat="47.94138" lon="1.81257">
        <ele>111.621</ele>
        <time>2011-10-30T11:02:53Z</time>
      </trkpt>
    </trkseg>
  </trk>
</gpx>